Time,TemperatureF,DewpointF,PressureIn,WindDirection,WindDirectionDegrees,WindSpeedMPH,WindSpeedGustMPH,Humidity,HourlyPrecipIn,Conditions,Clouds,dailyrainin,SoftwareType,DateUTC
2013-08-01 00:01:00,72.4,71.2,30.05,NNW,340,2.0,2.0,96,0.00,,,0.10,Wunderground v.1.15,2013-08-01 04:01:00,
2013-08-01 00:02:00,72.4,71.2,30.04,NE,39,1.0,2.0,96,0.00,,,0.10,Wunderground v.1.15,2013-08-01 04:02:00,
2013-08-01 00:04:00,72.4,71.2,30.04,NE,41,1.0,2.0,96,0.00,,,0.10,Wunderground v.1.15,2013-08-01 04:04:00,
2013-08-01 00:05:00,72.4,71.2,30.04,NE,39,1.0,2.0,96,0.00,,,0.10,Wunderground v.1.15,2013-08-01 04:05:00,
2013-08-01 00:06:00,72.4,71.2,30.04,NE,41,1.0,2.0,96,0.00,,,0.10,Wunderground v.1.15,2013-08-01 04:06:00,
2013-08-01 00:09:00,72.4,71.2,30.04,North,6,4.0,4.0,96,0.00,,,0.10,Wunderground v.1.15,2013-08-01 04:09:00,
2013-08-01 00:10:00,72.3,71.1,30.04,ENE,78,2.0,2.0,96,0.00,,,0.10,Wunderground v.1.15,2013-08-01 04:10:00,
2013-08-01 00:11:00,72.3,71.1,30.04,East,98,1.0,2.0,96,0.00,,,0.10,Wunderground v.1.15,2013-08-01 04:11:00,
2013-08-01 00:12:00,72.3,71.1,30.04,NNE,32,1.0,2.0,96,0.00,,,0.10,Wunderground v.1.15,2013-08-01 04:12:00,
2013-08-01 00:16:00,72.3,71.1,30.04,North,352,1.0,3.0,96,0.00,,,0.10,Wunderground v.1.15,2013-08-01 04:16:00,
2013-08-01 00:17:00,72.3,71.1,30.04,NNE,27,0.0,3.0,96,0.00,,,0.10,Wunderground v.1.15,2013-08-01 04:17:00,
2013-08-01 00:18:00,72.3,71.1,30.04,NNW,347,1.0,3.0,96,0.00,,,0.10,Wunderground v.1.15,2013-08-01 04:18:00,
2013-08-01 00:20:00,72.3,71.1,30.04,ENE,63,0.0,1.0,96,0.00,,,0.10,Wunderground v.1.15,2013-08-01 04:20:00,
2013-08-01 00:21:00,72.3,71.1,30.04,ENE,76,4.0,4.0,96,0.00,,,0.10,Wunderground v.1.15,2013-08-01 04:21:00,
2013-08-01 00:23:00,72.3,71.1,30.04,ENE,68,0.0,4.0,96,0.00,,,0.10,Wunderground v.1.15,2013-08-01 04:23:00,
2013-08-01 00:26:00,72.3,71.1,30.04,NE,50,1.0,4.0,96,0.00,,,0.10,Wunderground v.1.15,2013-08-01 04:26:00,
2013-08-01 00:29:00,72.3,71.1,30.04,ENE,68,1.0,4.0,96,0.00,,,0.10,Wunderground v.1.15,2013-08-01 04:29:00,
2013-08-01 00:30:00,72.3,71.1,30.04,NNE,13,1.0,1.0,96,0.00,,,0.10,Wunderground v.1.15,2013-08-01 04:30:00,
2013-08-01 00:31:00,72.2,71.0,30.03,NNW,340,1.0,1.0,96,0.00,,,0.10,Wunderground v.1.15,2013-08-01 04:31:00,
2013-08-01 00:35:00,72.2,71.0,30.03,NNE,15,1.0,1.0,96,0.00,,,0.10,Wunderground v.1.15,2013-08-01 04:35:00,
2013-08-01 00:36:00,72.2,71.0,30.03,NNE,15,0.0,1.0,96,0.00,,,0.10,Wunderground v.1.15,2013-08-01 04:36:00,
2013-08-01 00:38:00,72.1,70.9,30.03,East,91,0.0,1.0,96,0.00,,,0.10,Wunderground v.1.15,2013-08-01 04:38:00,
2013-08-01 00:41:00,72.1,70.9,30.03,NNE,32,0.0,1.0,96,0.00,,,0.10,Wunderground v.1.15,2013-08-01 04:41:00,
2013-08-01 00:42:00,72.0,70.8,30.04,NNE,32,0.0,1.0,96,0.00,,,0.10,Wunderground v.1.15,2013-08-01 04:42:00,
2013-08-01 00:43:00,72.1,70.9,30.03,NNE,29,1.0,1.0,96,0.00,,,0.10,Wunderground v.1.15,2013-08-01 04:43:00,
2013-08-01 00:44:00,72.0,70.8,30.04,ENE,65,1.0,1.0,96,0.00,,,0.10,Wunderground v.1.15,2013-08-01 04:44:00,
2013-08-01 00:47:00,72.0,70.8,30.03,North,11,0.0,2.0,96,0.00,,,0.10,Wunderground v.1.15,2013-08-01 04:47:00,
2013-08-01 00:49:00,72.0,70.8,30.03,NW,315,0.0,2.0,96,0.00,,,0.10,Wunderground v.1.15,2013-08-01 04:49:00,
2013-08-01 00:51:00,72.0,70.8,30.03,NW,315,0.0,0.0,96,0.00,,,0.10,Wunderground v.1.15,2013-08-01 04:51:00,
2013-08-01 00:53:00,72.0,70.8,30.03,NW,314,0.0,0.0,96,0.00,,,0.10,Wunderground v.1.15,2013-08-01 04:53:00,
2013-08-01 00:55:00,71.9,70.7,30.03,NW,314,0.0,0.0,96,0.00,,,0.10,Wunderground v.1.15,2013-08-01 04:55:00,
2013-08-01 00:57:00,71.9,70.7,30.03,NW,315,0.0,0.0,96,0.00,,,0.10,Wunderground v.1.15,2013-08-01 04:57:00,
2013-08-01 00:58:00,71.9,70.7,30.03,NE,53,0.0,0.0,96,0.00,,,0.10,Wunderground v.1.15,2013-08-01 04:58:00,
2013-08-01 00:59:00,71.9,70.7,30.03,NNE,32,0.0,0.0,96,0.00,,,0.10,Wunderground v.1.15,2013-08-01 04:59:00,
2013-08-01 01:00:00,71.9,70.7,30.03,NNW,330,0.0,0.0,96,0.00,,,0.10,Wunderground v.1.15,2013-08-01 05:00:00,
2013-08-01 01:03:00,71.9,70.7,30.03,NNW,330,0.0,0.0,96,0.00,,,0.00,Wunderground v.1.15,2013-08-01 05:03:00,
2013-08-01 01:05:00,71.9,70.7,30.03,NNW,330,0.0,0.0,96,0.00,,,0.00,Wunderground v.1.15,2013-08-01 05:05:00,
2013-08-01 01:06:00,71.9,70.7,30.02,North,356,0.0,0.0,96,0.00,,,0.00,Wunderground v.1.15,2013-08-01 05:06:00,
2013-08-01 01:09:00,71.9,70.7,30.02,NW,315,0.0,0.0,96,0.00,,,0.00,Wunderground v.1.15,2013-08-01 05:09:00,
2013-08-01 01:11:00,71.8,70.6,30.02,NW,315,0.0,0.0,96,0.00,,,0.00,Wunderground v.1.15,2013-08-01 05:11:00,
2013-08-01 01:13:00,71.9,70.7,30.03,NW,315,0.0,0.0,96,0.00,,,0.00,Wunderground v.1.15,2013-08-01 05:13:00,
2013-08-01 01:14:00,71.9,70.7,30.03,NW,321,0.0,0.0,96,0.00,,,0.00,Wunderground v.1.15,2013-08-01 05:14:00,
2013-08-01 01:15:00,71.8,70.6,30.02,NW,322,0.0,0.0,96,0.00,,,0.00,Wunderground v.1.15,2013-08-01 05:15:00,
2013-08-01 01:17:00,71.9,70.7,30.02,NW,322,0.0,0.0,96,0.00,,,0.00,Wunderground v.1.15,2013-08-01 05:17:00,
2013-08-01 01:18:00,71.8,70.6,30.02,NW,321,0.0,0.0,96,0.00,,,0.00,Wunderground v.1.15,2013-08-01 05:18:00,
2013-08-01 01:19:00,71.9,70.7,30.02,NW,322,0.0,0.0,96,0.00,,,0.00,Wunderground v.1.15,2013-08-01 05:19:00,
2013-08-01 01:22:00,71.8,70.6,30.02,NNW,330,0.0,0.0,96,0.00,,,0.00,Wunderground v.1.15,2013-08-01 05:22:00,
2013-08-01 01:24:00,71.8,70.6,30.02,ENE,77,0.0,0.0,96,0.00,,,0.00,Wunderground v.1.15,2013-08-01 05:24:00,
2013-08-01 01:25:00,71.9,70.7,30.02,NW,308,0.0,0.0,96,0.00,,,0.00,Wunderground v.1.15,2013-08-01 05:25:00,
2013-08-01 01:27:00,71.8,70.6,30.02,NNE,15,0.0,0.0,96,0.00,,,0.00,Wunderground v.1.15,2013-08-01 05:27:00,
2013-08-01 01:29:00,71.8,70.6,30.02,WNW,290,0.0,0.0,96,0.00,,,0.00,Wunderground v.1.15,2013-08-01 05:29:00,
2013-08-01 01:32:00,71.8,70.6,30.02,WNW,294,0.0,0.0,96,0.00,,,0.00,Wunderground v.1.15,2013-08-01 05:32:00,
2013-08-01 01:33:00,71.8,70.6,30.02,NNW,340,1.0,1.0,96,0.00,,,0.00,Wunderground v.1.15,2013-08-01 05:33:00,
2013-08-01 01:34:00,71.8,70.6,30.02,NNW,340,0.0,1.0,96,0.00,,,0.00,Wunderground v.1.15,2013-08-01 05:34:00,
2013-08-01 01:37:00,71.8,70.6,30.02,North,351,0.0,1.0,96,0.00,,,0.00,Wunderground v.1.15,2013-08-01 05:37:00,
2013-08-01 01:38:00,71.8,70.6,30.02,North,351,1.0,1.0,96,0.00,,,0.00,Wunderground v.1.15,2013-08-01 05:38:00,
2013-08-01 01:39:00,71.8,70.6,30.02,NNE,18,0.0,1.0,96,0.00,,,0.00,Wunderground v.1.15,2013-08-01 05:39:00,
2013-08-01 01:40:00,71.8,70.6,30.02,NNE,18,0.0,0.0,96,0.00,,,0.00,Wunderground v.1.15,2013-08-01 05:40:00,
2013-08-01 01:42:00,71.8,70.6,30.02,NNE,18,1.0,1.0,96,0.00,,,0.00,Wunderground v.1.15,2013-08-01 05:42:00,
2013-08-01 01:43:00,71.8,70.6,30.02,NNE,27,0.0,1.0,96,0.00,,,0.00,Wunderground v.1.15,2013-08-01 05:43:00,
2013-08-01 01:47:00,71.8,70.6,30.02,NNE,27,0.0,1.0,96,0.00,,,0.00,Wunderground v.1.15,2013-08-01 05:47:00,
2013-08-01 01:48:00,71.8,70.6,30.02,NNE,27,0.0,1.0,96,0.00,,,0.00,Wunderground v.1.15,2013-08-01 05:48:00,
2013-08-01 01:51:00,71.8,70.6,30.02,NNE,27,0.0,0.0,96,0.00,,,0.00,Wunderground v.1.15,2013-08-01 05:51:00,
2013-08-01 01:52:00,71.8,70.6,30.02,NW,310,0.0,0.0,96,0.00,,,0.00,Wunderground v.1.15,2013-08-01 05:52:00,
2013-08-01 01:54:00,71.8,70.9,30.02,NNE,27,2.0,2.0,97,0.00,,,0.00,Wunderground v.1.15,2013-08-01 05:54:00,
2013-08-01 01:56:00,71.8,70.6,30.02,NW,316,1.0,2.0,96,0.00,,,0.00,Wunderground v.1.15,2013-08-01 05:56:00,
2013-08-01 01:57:00,71.8,70.6,30.02,WNW,302,0.0,2.0,96,0.00,,,0.00,Wunderground v.1.15,2013-08-01 05:57:00,
2013-08-01 01:58:00,71.8,70.6,30.02,NW,315,0.0,2.0,96,0.00,,,0.00,Wunderground v.1.15,2013-08-01 05:58:00,
2013-08-01 01:59:00,71.8,70.6,30.02,NW,315,1.0,2.0,96,0.00,,,0.00,Wunderground v.1.15,2013-08-01 05:59:00,
2013-08-01 02:00:00,71.8,70.6,30.02,NW,315,0.0,0.0,96,0.00,,,0.00,Wunderground v.1.15,2013-08-01 06:00:00,
2013-08-01 02:02:00,71.8,70.6,30.01,North,356,1.0,2.0,96,0.00,,,0.00,Wunderground v.1.15,2013-08-01 06:02:00,
2013-08-01 02:03:00,71.8,70.6,30.01,North,357,1.0,2.0,96,0.00,,,0.00,Wunderground v.1.15,2013-08-01 06:03:00,
2013-08-01 02:04:00,71.8,70.6,30.02,North,356,1.0,2.0,96,0.00,,,0.00,Wunderground v.1.15,2013-08-01 06:04:00,
2013-08-01 02:05:00,71.8,70.6,30.02,North,357,1.0,2.0,96,0.00,,,0.00,Wunderground v.1.15,2013-08-01 06:05:00,
2013-08-01 02:07:00,71.8,70.9,30.01,North,11,1.0,3.0,97,0.00,,,0.00,Wunderground v.1.15,2013-08-01 06:07:00,
2013-08-01 02:08:00,71.8,70.9,30.01,NNE,12,1.0,3.0,97,0.00,,,0.00,Wunderground v.1.15,2013-08-01 06:08:00,
2013-08-01 02:09:00,71.8,70.6,30.02,NNE,12,0.0,3.0,96,0.00,,,0.00,Wunderground v.1.15,2013-08-01 06:09:00,
2013-08-01 02:10:00,71.8,70.6,30.02,North,11,0.0,1.0,96,0.00,,,0.00,Wunderground v.1.15,2013-08-01 06:10:00,
2013-08-01 02:13:00,71.8,70.6,30.01,North,11,0.0,1.0,96,0.00,,,0.00,Wunderground v.1.15,2013-08-01 06:13:00,
2013-08-01 02:14:00,71.8,70.6,30.01,North,11,0.0,1.0,96,0.00,,,0.00,Wunderground v.1.15,2013-08-01 06:14:00,
2013-08-01 02:15:00,71.9,70.7,30.01,NNE,22,1.0,2.0,96,0.00,,,0.00,Wunderground v.1.15,2013-08-01 06:15:00,
2013-08-01 02:18:00,71.8,70.6,30.01,ESE,110,0.0,2.0,96,0.00,,,0.00,Wunderground v.1.15,2013-08-01 06:18:00,
2013-08-01 02:19:00,71.9,70.7,30.01,ESE,110,0.0,2.0,96,0.00,,,0.00,Wunderground v.1.15,2013-08-01 06:19:00,
2013-08-01 02:21:00,71.8,70.6,30.01,ESE,110,0.0,0.0,96,0.00,,,0.00,Wunderground v.1.15,2013-08-01 06:21:00,
2013-08-01 02:23:00,71.8,70.6,30.01,ESE,110,0.0,0.0,96,0.00,,,0.00,Wunderground v.1.15,2013-08-01 06:23:00,
2013-08-01 02:24:00,71.8,70.6,30.01,ESE,110,0.0,0.0,96,0.00,,,0.00,Wunderground v.1.15,2013-08-01 06:24:00,
2013-08-01 02:26:00,71.9,70.7,30.01,ESE,110,0.0,0.0,96,0.00,,,0.00,Wunderground v.1.15,2013-08-01 06:26:00,
2013-08-01 02:28:00,71.9,70.7,30.01,NE,49,1.0,3.0,96,0.00,,,0.00,Wunderground v.1.15,2013-08-01 06:28:00,
2013-08-01 02:29:00,71.9,70.7,30.01,NE,53,1.0,3.0,96,0.00,,,0.00,Wunderground v.1.15,2013-08-01 06:29:00,
2013-08-01 02:31:00,71.9,70.7,30.01,NE,53,0.0,1.0,96,0.00,,,0.00,Wunderground v.1.15,2013-08-01 06:31:00,
2013-08-01 02:33:00,71.9,70.7,30.01,NW,319,2.0,2.0,96,0.00,,,0.00,Wunderground v.1.15,2013-08-01 06:33:00,
2013-08-01 02:34:00,71.9,70.7,30.01,NW,305,2.0,2.0,96,0.00,,,0.00,Wunderground v.1.15,2013-08-01 06:34:00,
2013-08-01 02:35:00,71.9,70.7,30.01,NNE,16,2.0,2.0,96,0.00,,,0.00,Wunderground v.1.15,2013-08-01 06:35:00,
2013-08-01 02:37:00,71.9,70.7,30.01,NNE,30,0.0,3.0,96,0.00,,,0.00,Wunderground v.1.15,2013-08-01 06:37:00,
2013-08-01 02:38:00,71.8,70.6,30.01,NE,47,1.0,3.0,96,0.00,,,0.00,Wunderground v.1.15,2013-08-01 06:38:00,
2013-08-01 02:39:00,71.9,70.7,30.01,North,350,1.0,3.0,96,0.00,,,0.00,Wunderground v.1.15,2013-08-01 06:39:00,
2013-08-01 02:40:00,71.9,70.7,30.01,North,351,0.0,1.0,96,0.00,,,0.00,Wunderground v.1.15,2013-08-01 06:40:00,
2013-08-01 02:42:00,71.9,70.7,30.01,NE,44,2.0,4.0,96,0.00,,,0.00,Wunderground v.1.15,2013-08-01 06:42:00,
2013-08-01 02:43:00,71.9,70.7,30.01,NNE,29,0.0,4.0,96,0.00,,,0.00,Wunderground v.1.15,2013-08-01 06:43:00,
2013-08-01 02:44:00,71.9,70.7,30.01,NE,47,3.0,4.0,96,0.00,,,0.00,Wunderground v.1.15,2013-08-01 06:44:00,
2013-08-01 02:45:00,71.9,70.7,30.01,ENE,59,2.0,4.0,96,0.00,,,0.00,Wunderground v.1.15,2013-08-01 06:45:00,
2013-08-01 02:47:00,71.9,70.7,30.01,NE,41,1.0,4.0,96,0.00,,,0.00,Wunderground v.1.15,2013-08-01 06:47:00,
2013-08-01 02:48:00,71.9,70.7,30.01,ENE,63,0.0,4.0,96,0.00,,,0.00,Wunderground v.1.15,2013-08-01 06:48:00,
2013-08-01 02:49:00,71.9,70.7,30.01,NE,55,0.0,4.0,96,0.00,,,0.00,Wunderground v.1.15,2013-08-01 06:49:00,
2013-08-01 02:50:00,71.8,70.6,30.01,NNE,23,0.0,4.0,96,0.00,,,0.00,Wunderground v.1.15,2013-08-01 06:50:00,
2013-08-01 02:52:00,71.9,70.7,30.00,NNE,23,0.0,2.0,96,0.00,,,0.00,Wunderground v.1.15,2013-08-01 06:52:00,
2013-08-01 02:54:00,71.9,71.0,30.01,East,94,1.0,2.0,97,0.00,,,0.00,Wunderground v.1.15,2013-08-01 06:54:00,
2013-08-01 02:55:00,71.9,71.0,30.01,NNW,339,1.0,2.0,97,0.00,,,0.00,Wunderground v.1.15,2013-08-01 06:55:00,
2013-08-01 02:57:00,71.9,71.0,30.00,NNE,27,2.0,3.0,97,0.00,,,0.00,Wunderground v.1.15,2013-08-01 06:57:00,
2013-08-01 02:59:00,71.9,71.0,30.00,NE,36,1.0,3.0,97,0.00,,,0.00,Wunderground v.1.15,2013-08-01 06:59:00,
2013-08-01 03:00:00,71.9,71.0,30.00,NE,37,1.0,3.0,97,0.00,,,0.00,Wunderground v.1.15,2013-08-01 07:00:00,
2013-08-01 03:01:00,71.9,71.0,30.00,NE,37,1.0,1.0,97,0.00,,,0.00,Wunderground v.1.15,2013-08-01 07:01:00,
2013-08-01 03:02:00,71.8,70.9,30.00,NNE,20,2.0,4.0,97,0.00,,,0.00,Wunderground v.1.15,2013-08-01 07:02:00,
2013-08-01 03:04:00,71.8,70.6,30.00,East,92,1.0,4.0,96,0.00,,,0.00,Wunderground v.1.15,2013-08-01 07:04:00,
2013-08-01 03:05:00,71.8,70.6,30.00,East,91,1.0,4.0,96,0.00,,,0.00,Wunderground v.1.15,2013-08-01 07:05:00,
2013-08-01 03:06:00,71.8,70.9,30.00,East,79,1.0,4.0,97,0.00,,,0.00,Wunderground v.1.15,2013-08-01 07:06:00,
2013-08-01 03:07:00,71.8,70.9,30.00,East,79,0.0,4.0,97,0.00,,,0.00,Wunderground v.1.15,2013-08-01 07:07:00,
2013-08-01 03:09:00,71.8,70.9,30.00,NE,47,1.0,4.0,97,0.00,,,0.00,Wunderground v.1.15,2013-08-01 07:09:00,
2013-08-01 03:10:00,71.8,70.9,30.00,NE,47,0.0,4.0,97,0.00,,,0.00,Wunderground v.1.15,2013-08-01 07:10:00,
2013-08-01 03:11:00,71.8,70.9,30.00,ENE,61,0.0,3.0,97,0.00,,,0.00,Wunderground v.1.15,2013-08-01 07:11:00,
2013-08-01 03:12:00,71.8,70.9,30.00,ENE,61,1.0,3.0,97,0.00,,,0.00,Wunderground v.1.15,2013-08-01 07:12:00,
2013-08-01 03:15:00,71.8,70.9,30.00,North,11,1.0,3.0,97,0.00,,,0.00,Wunderground v.1.15,2013-08-01 07:15:00,
2013-08-01 03:17:00,71.8,70.9,30.00,NE,35,3.0,4.0,97,0.00,,,0.00,Wunderground v.1.15,2013-08-01 07:17:00,
2013-08-01 03:18:00,71.8,70.9,30.00,NE,41,2.0,4.0,97,0.00,,,0.00,Wunderground v.1.15,2013-08-01 07:18:00,
2013-08-01 03:20:00,71.8,70.9,30.00,NNE,32,1.0,4.0,97,0.00,,,0.00,Wunderground v.1.15,2013-08-01 07:20:00,
2013-08-01 03:22:00,71.8,70.9,30.00,NNE,32,0.0,1.0,97,0.00,,,0.00,Wunderground v.1.15,2013-08-01 07:22:00,
2013-08-01 03:23:00,71.8,70.9,30.00,NNE,33,0.0,1.0,97,0.00,,,0.00,Wunderground v.1.15,2013-08-01 07:23:00,
2013-08-01 03:25:00,71.8,70.9,30.00,NNE,33,0.0,1.0,97,0.00,,,0.00,Wunderground v.1.15,2013-08-01 07:25:00,
2013-08-01 03:28:00,71.8,70.9,30.00,NNE,32,0.0,1.0,97,0.00,,,0.00,Wunderground v.1.15,2013-08-01 07:28:00,
2013-08-01 03:30:00,71.8,70.9,30.00,NNE,32,0.0,1.0,97,0.00,,,0.00,Wunderground v.1.15,2013-08-01 07:30:00,
2013-08-01 03:31:00,71.8,70.9,30.00,NE,36,1.0,2.0,97,0.00,,,0.00,Wunderground v.1.15,2013-08-01 07:31:00,
2013-08-01 03:33:00,71.8,70.9,30.00,NE,36,0.0,2.0,97,0.00,,,0.00,Wunderground v.1.15,2013-08-01 07:33:00,
2013-08-01 03:35:00,71.8,70.9,30.00,NE,47,2.0,3.0,97,0.00,,,0.00,Wunderground v.1.15,2013-08-01 07:35:00,
2013-08-01 03:36:00,71.8,70.9,30.00,NE,47,1.0,3.0,97,0.00,,,0.00,Wunderground v.1.15,2013-08-01 07:36:00,
2013-08-01 03:38:00,71.7,70.8,30.00,NE,47,2.0,3.0,97,0.00,,,0.00,Wunderground v.1.15,2013-08-01 07:38:00,
2013-08-01 03:40:00,71.7,70.8,30.00,NE,47,0.0,1.0,97,0.00,,,0.00,Wunderground v.1.15,2013-08-01 07:40:00,
2013-08-01 03:41:00,71.7,70.8,30.00,NE,42,0.0,1.0,97,0.00,,,0.00,Wunderground v.1.15,2013-08-01 07:41:00,
2013-08-01 03:43:00,71.7,70.8,29.99,NE,45,0.0,1.0,97,0.00,,,0.00,Wunderground v.1.15,2013-08-01 07:43:00,
2013-08-01 03:45:00,71.7,70.8,30.00,NE,45,0.0,3.0,97,0.00,,,0.00,Wunderground v.1.15,2013-08-01 07:45:00,
2013-08-01 03:46:00,71.7,70.8,29.99,NE,46,0.0,3.0,97,0.00,,,0.00,Wunderground v.1.15,2013-08-01 07:46:00,
2013-08-01 03:48:00,71.7,70.8,29.99,NNE,20,1.0,3.0,97,0.00,,,0.00,Wunderground v.1.15,2013-08-01 07:48:00,
2013-08-01 03:49:00,71.7,70.8,29.99,NNE,20,0.0,3.0,97,0.00,,,0.00,Wunderground v.1.15,2013-08-01 07:49:00,
2013-08-01 03:51:00,71.7,70.8,29.99,NNE,20,0.0,1.0,97,0.00,,,0.00,Wunderground v.1.15,2013-08-01 07:51:00,
2013-08-01 03:53:00,71.7,70.8,29.99,North,7,1.0,2.0,97,0.00,,,0.00,Wunderground v.1.15,2013-08-01 07:53:00,
2013-08-01 03:54:00,71.7,70.8,29.99,NNE,29,1.0,2.0,97,0.00,,,0.00,Wunderground v.1.15,2013-08-01 07:54:00,
2013-08-01 03:56:00,71.7,70.8,29.99,NNE,22,2.0,2.0,97,0.00,,,0.00,Wunderground v.1.15,2013-08-01 07:56:00,
2013-08-01 03:58:00,71.7,70.8,29.99,NE,36,1.0,2.0,97,0.00,,,0.00,Wunderground v.1.15,2013-08-01 07:58:00,
2013-08-01 03:59:00,71.6,70.7,29.99,NNE,27,1.0,2.0,97,0.00,,,0.00,Wunderground v.1.15,2013-08-01 07:59:00,
2013-08-01 04:02:00,71.6,70.7,29.99,North,11,1.0,2.0,97,0.00,,,0.00,Wunderground v.1.15,2013-08-01 08:02:00,
2013-08-01 04:03:00,71.6,70.7,29.99,NE,34,2.0,2.0,97,0.00,,,0.00,Wunderground v.1.15,2013-08-01 08:03:00,
2013-08-01 04:04:00,71.6,70.7,29.99,NNE,32,1.0,2.0,97,0.00,,,0.00,Wunderground v.1.15,2013-08-01 08:04:00,
2013-08-01 04:07:00,71.6,70.7,29.99,NNE,27,0.0,4.0,97,0.00,,,0.00,Wunderground v.1.15,2013-08-01 08:07:00,
2013-08-01 04:09:00,71.6,70.7,29.99,North,5,2.0,4.0,97,0.00,,,0.00,Wunderground v.1.15,2013-08-01 08:09:00,
2013-08-01 04:10:00,71.5,70.6,29.99,North,9,1.0,1.0,97,0.00,,,0.00,Wunderground v.1.15,2013-08-01 08:10:00,
2013-08-01 04:12:00,71.5,70.6,29.99,NNW,330,2.0,2.0,97,0.00,,,0.00,Wunderground v.1.15,2013-08-01 08:12:00,
2013-08-01 04:14:00,71.5,70.6,29.99,North,11,2.0,2.0,97,0.00,,,0.00,Wunderground v.1.15,2013-08-01 08:14:00,
2013-08-01 04:15:00,71.5,70.6,29.99,North,11,0.0,2.0,97,0.00,,,0.00,Wunderground v.1.15,2013-08-01 08:15:00,
2013-08-01 04:17:00,71.5,70.6,29.99,North,11,1.0,2.0,97,0.00,,,0.00,Wunderground v.1.15,2013-08-01 08:17:00,
2013-08-01 04:18:00,71.5,70.6,29.99,NNW,348,1.0,2.0,97,0.00,,,0.00,Wunderground v.1.15,2013-08-01 08:18:00,
2013-08-01 04:19:00,71.5,70.6,29.99,NNE,23,1.0,2.0,97,0.00,,,0.00,Wunderground v.1.15,2013-08-01 08:19:00,
2013-08-01 04:20:00,71.5,70.6,29.99,ENE,71,1.0,2.0,97,0.00,,,0.00,Wunderground v.1.15,2013-08-01 08:20:00,
2013-08-01 04:22:00,71.5,70.6,29.99,NNW,348,2.0,2.0,97,0.00,,,0.00,Wunderground v.1.15,2013-08-01 08:22:00,
2013-08-01 04:23:00,71.5,70.6,29.99,NNW,338,0.0,3.0,97,0.00,,,0.00,Wunderground v.1.15,2013-08-01 08:23:00,
2013-08-01 04:26:00,71.5,70.6,29.99,North,359,2.0,3.0,97,0.00,,,0.00,Wunderground v.1.15,2013-08-01 08:26:00,
2013-08-01 04:27:00,71.5,70.6,29.99,NNW,343,1.0,3.0,97,0.00,,,0.00,Wunderground v.1.15,2013-08-01 08:27:00,
2013-08-01 04:28:00,71.5,70.6,29.99,North,4,0.0,3.0,97,0.00,,,0.00,Wunderground v.1.15,2013-08-01 08:28:00,
2013-08-01 04:29:00,71.5,70.6,29.99,North,1,1.0,3.0,97,0.00,,,0.00,Wunderground v.1.15,2013-08-01 08:29:00,
2013-08-01 04:31:00,71.5,70.6,29.99,NNE,33,1.0,2.0,97,0.00,,,0.00,Wunderground v.1.15,2013-08-01 08:31:00,
2013-08-01 04:32:00,71.5,70.6,29.99,North,354,0.0,2.0,97,0.00,,,0.00,Wunderground v.1.15,2013-08-01 08:32:00,
2013-08-01 04:34:00,71.5,70.6,29.99,ENE,66,1.0,2.0,97,0.00,,,0.00,Wunderground v.1.15,2013-08-01 08:34:00,
2013-08-01 04:35:00,71.5,70.6,29.99,ENE,67,1.0,2.0,97,0.00,,,0.00,Wunderground v.1.15,2013-08-01 08:35:00,
2013-08-01 04:38:00,71.5,70.6,29.99,NNE,25,1.0,4.0,97,0.00,,,0.00,Wunderground v.1.15,2013-08-01 08:38:00,
2013-08-01 04:41:00,71.5,70.6,29.99,East,101,1.0,1.0,97,0.00,,,0.00,Wunderground v.1.15,2013-08-01 08:41:00,
2013-08-01 04:43:00,71.5,70.6,29.99,East,84,0.0,1.0,97,0.00,,,0.00,Wunderground v.1.15,2013-08-01 08:43:00,
2013-08-01 04:44:00,71.5,70.6,29.99,East,84,1.0,1.0,97,0.00,,,0.00,Wunderground v.1.15,2013-08-01 08:44:00,
2013-08-01 04:46:00,71.5,70.6,29.98,NNW,348,2.0,2.0,97,0.00,,,0.00,Wunderground v.1.15,2013-08-01 08:46:00,
2013-08-01 04:53:00,71.4,70.5,29.98,NNE,32,3.0,3.0,97,0.00,,,0.00,Wunderground v.1.15,2013-08-01 08:53:00,
2013-08-01 04:58:00,71.4,70.5,29.98,NNW,341,2.0,4.0,97,0.00,,,0.00,Wunderground v.1.15,2013-08-01 08:58:00,
2013-08-01 04:59:00,71.4,70.5,29.98,NE,38,1.0,4.0,97,0.00,,,0.00,Wunderground v.1.15,2013-08-01 08:59:00,
2013-08-01 05:03:00,71.4,70.5,29.98,NNE,29,2.0,3.0,97,0.00,,,0.00,Wunderground v.1.15,2013-08-01 09:03:00,
2013-08-01 05:04:00,71.4,70.5,29.98,NNE,29,2.0,3.0,97,0.00,,,0.00,Wunderground v.1.15,2013-08-01 09:04:00,
2013-08-01 05:05:00,71.4,70.5,29.98,North,4,3.0,4.0,97,0.00,,,0.00,Wunderground v.1.15,2013-08-01 09:05:00,
2013-08-01 05:09:00,71.4,70.5,29.97,NE,53,2.0,4.0,97,0.00,,,0.00,Wunderground v.1.15,2013-08-01 09:09:00,
2013-08-01 05:12:00,71.4,70.5,29.98,NNE,22,2.0,2.0,97,0.00,,,0.00,Wunderground v.1.15,2013-08-01 09:12:00,
2013-08-01 05:15:00,71.4,70.5,29.97,NNE,30,3.0,3.0,97,0.00,,,0.00,Wunderground v.1.15,2013-08-01 09:15:00,
2013-08-01 05:18:00,71.4,70.5,29.97,NNE,23,3.0,3.0,97,0.00,,,0.00,Wunderground v.1.15,2013-08-01 09:18:00,
2013-08-01 05:21:00,71.4,70.5,29.97,NE,36,1.0,2.0,97,0.00,,,0.00,Wunderground v.1.15,2013-08-01 09:21:00,
2013-08-01 05:22:00,71.4,70.5,29.97,NNW,330,4.0,4.0,97,0.00,,,0.00,Wunderground v.1.15,2013-08-01 09:22:00,
2013-08-01 05:26:00,71.5,70.6,29.97,NE,44,3.0,4.0,97,0.00,,,0.00,Wunderground v.1.15,2013-08-01 09:26:00,
2013-08-01 05:27:00,71.4,70.5,29.97,NNE,23,2.0,4.0,97,0.00,,,0.00,Wunderground v.1.15,2013-08-01 09:27:00,
2013-08-01 05:28:00,71.5,70.6,29.97,NNE,23,0.0,4.0,97,0.00,,,0.00,Wunderground v.1.15,2013-08-01 09:28:00,
2013-08-01 05:31:00,71.4,70.5,29.97,NE,46,2.0,4.0,97,0.00,,,0.00,Wunderground v.1.15,2013-08-01 09:31:00,
2013-08-01 05:32:00,71.4,70.5,29.97,NNE,20,2.0,5.0,97,0.00,,,0.00,Wunderground v.1.15,2013-08-01 09:32:00,
2013-08-01 05:34:00,71.5,70.6,29.97,ESE,107,1.0,5.0,97,0.00,,,0.00,Wunderground v.1.15,2013-08-01 09:34:00,
2013-08-01 05:37:00,71.5,70.6,29.97,NNE,23,2.0,5.0,97,0.00,,,0.00,Wunderground v.1.15,2013-08-01 09:37:00,
2013-08-01 05:39:00,71.4,70.5,29.97,East,90,1.0,5.0,97,0.00,,,0.00,Wunderground v.1.15,2013-08-01 09:39:00,
2013-08-01 05:40:00,71.5,70.6,29.97,NNW,342,2.0,2.0,97,0.00,,,0.00,Wunderground v.1.15,2013-08-01 09:40:00,
2013-08-01 05:43:00,71.4,70.5,29.97,North,9,1.0,3.0,97,0.00,,,0.00,Wunderground v.1.15,2013-08-01 09:43:00,
2013-08-01 05:45:00,71.4,70.5,29.97,NNE,16,3.0,4.0,97,0.00,,,0.00,Wunderground v.1.15,2013-08-01 09:45:00,
2013-08-01 05:48:00,71.4,70.5,29.97,ENE,72,0.0,4.0,97,0.00,,,0.00,Wunderground v.1.15,2013-08-01 09:48:00,
2013-08-01 05:52:00,71.4,70.5,29.97,NNE,18,0.0,1.0,97,0.00,,,0.00,Wunderground v.1.15,2013-08-01 09:52:00,
2013-08-01 05:53:00,71.4,70.5,29.97,NNE,18,0.0,1.0,97,0.00,,,0.00,Wunderground v.1.15,2013-08-01 09:53:00,
2013-08-01 05:58:00,71.3,70.4,29.97,NNW,342,3.0,5.0,97,0.00,,,0.00,Wunderground v.1.15,2013-08-01 09:58:00,
2013-08-01 05:59:00,71.3,70.4,29.97,NE,36,1.0,5.0,97,0.00,,,0.00,Wunderground v.1.15,2013-08-01 09:59:00,
2013-08-01 06:03:00,71.3,70.4,29.97,East,94,0.0,1.0,97,0.00,,,0.00,Wunderground v.1.15,2013-08-01 10:03:00,
2013-08-01 06:05:00,71.3,70.4,29.97,NNE,15,0.0,1.0,97,0.00,,,0.00,Wunderground v.1.15,2013-08-01 10:05:00,
2013-08-01 06:08:00,71.3,70.4,29.97,East,85,1.0,3.0,97,0.00,,,0.00,Wunderground v.1.15,2013-08-01 10:08:00,
2013-08-01 06:10:00,71.3,70.4,29.97,NNE,27,3.0,3.0,97,0.00,,,0.00,Wunderground v.1.15,2013-08-01 10:10:00,
2013-08-01 06:12:00,71.2,70.3,29.97,NE,36,2.0,2.0,97,0.00,,,0.00,Wunderground v.1.15,2013-08-01 10:12:00,
2013-08-01 06:14:00,71.3,70.4,29.98,ENE,70,4.0,4.0,97,0.00,,,0.00,Wunderground v.1.15,2013-08-01 10:14:00,
2013-08-01 06:15:00,71.3,70.4,29.98,NE,46,3.0,4.0,97,0.00,,,0.00,Wunderground v.1.15,2013-08-01 10:15:00,
2013-08-01 06:18:00,71.3,70.7,29.98,NE,49,2.0,4.0,98,0.00,,,0.00,Wunderground v.1.15,2013-08-01 10:18:00,
2013-08-01 06:20:00,71.3,70.7,29.98,ESE,114,1.0,2.0,98,0.00,,,0.00,Wunderground v.1.15,2013-08-01 10:20:00,
2013-08-01 06:21:00,71.3,70.7,29.98,North,6,3.0,5.0,98,0.00,,,0.00,Wunderground v.1.15,2013-08-01 10:21:00,
2013-08-01 06:24:00,71.3,70.7,29.98,NNE,32,1.0,5.0,98,0.00,,,0.00,Wunderground v.1.15,2013-08-01 10:24:00,
2013-08-01 06:26:00,71.3,70.7,29.98,East,97,1.0,5.0,98,0.00,,,0.00,Wunderground v.1.15,2013-08-01 10:26:00,
2013-08-01 06:28:00,71.3,70.7,29.98,ENE,77,3.0,5.0,98,0.00,,,0.00,Wunderground v.1.15,2013-08-01 10:28:00,
2013-08-01 06:29:00,71.3,70.7,29.98,ENE,69,2.0,5.0,98,0.00,,,0.00,Wunderground v.1.15,2013-08-01 10:29:00,
2013-08-01 06:32:00,71.4,70.8,29.98,ESE,109,1.0,5.0,98,0.00,,,0.00,Wunderground v.1.15,2013-08-01 10:32:00,
2013-08-01 06:34:00,71.4,70.8,29.98,ENE,75,2.0,5.0,98,0.00,,,0.00,Wunderground v.1.15,2013-08-01 10:34:00,
2013-08-01 06:35:00,71.4,70.8,29.98,ENE,75,2.0,5.0,98,0.00,,,0.00,Wunderground v.1.15,2013-08-01 10:35:00,
2013-08-01 06:38:00,71.4,70.5,29.99,ENE,58,0.0,5.0,97,0.00,,,0.00,Wunderground v.1.15,2013-08-01 10:38:00,
2013-08-01 06:40:00,71.5,70.6,29.98,North,9,3.0,3.0,97,0.00,,,0.00,Wunderground v.1.15,2013-08-01 10:40:00,
2013-08-01 06:45:00,72.3,71.4,29.99,ESE,104,2.0,6.0,97,0.00,,,0.00,Wunderground v.1.15,2013-08-01 10:45:00,
2013-08-01 06:46:00,72.3,71.4,29.99,ESE,104,2.0,6.0,97,0.00,,,0.00,Wunderground v.1.15,2013-08-01 10:46:00,
2013-08-01 06:51:00,72.3,71.4,29.99,ESE,104,2.0,2.0,97,0.00,,,0.00,Wunderground v.1.15,2013-08-01 10:51:00,
2013-08-01 06:52:00,72.3,71.4,29.99,ESE,104,2.0,2.0,97,0.00,,,0.00,Wunderground v.1.15,2013-08-01 10:52:00,
2013-08-01 06:57:00,-999.9,-99.9,29.99,North,32767,-999.0,2.0,255,-99.99,,,0.00,Wunderground v.1.15,2013-08-01 10:57:00,
2013-08-01 06:58:00,-999.9,-99.9,29.99,North,32767,-999.0,2.0,255,-99.99,,,0.00,Wunderground v.1.15,2013-08-01 10:58:00,
2013-08-01 07:03:00,-999.9,-99.9,29.99,North,32767,-999.0,-999.0,255,-99.99,,,0.00,Wunderground v.1.15,2013-08-01 11:03:00,
2013-08-01 07:04:00,-999.9,-99.9,29.99,North,32767,-999.0,-999.0,255,-99.99,,,0.00,Wunderground v.1.15,2013-08-01 11:04:00,
2013-08-01 07:08:00,-999.9,-99.9,29.99,North,32767,-999.0,-999.0,255,-99.99,,,0.00,Wunderground v.1.15,2013-08-01 11:08:00,
2013-08-01 07:09:00,-999.9,-99.9,29.99,North,32767,-999.0,-999.0,255,-99.99,,,0.00,Wunderground v.1.15,2013-08-01 11:09:00,
2013-08-01 07:10:00,-999.9,-99.9,29.99,North,32767,-999.0,-999.0,255,-99.99,,,0.00,Wunderground v.1.15,2013-08-01 11:10:00,
2013-08-01 07:14:00,-999.9,-99.9,29.99,North,32767,-999.0,-999.0,255,-99.99,,,0.00,Wunderground v.1.15,2013-08-01 11:14:00,
2013-08-01 07:15:00,-999.9,-99.9,29.99,North,32767,-999.0,-999.0,255,-99.99,,,0.00,Wunderground v.1.15,2013-08-01 11:15:00,
2013-08-01 07:19:00,-999.9,-99.9,29.99,North,32767,-999.0,-999.0,255,-99.99,,,0.00,Wunderground v.1.15,2013-08-01 11:19:00,
2013-08-01 07:20:00,-999.9,-99.9,29.99,North,32767,-999.0,-999.0,255,-99.99,,,0.00,Wunderground v.1.15,2013-08-01 11:20:00,
2013-08-01 07:21:00,-999.9,-99.9,29.99,North,32767,-999.0,-999.0,255,-99.99,,,0.00,Wunderground v.1.15,2013-08-01 11:21:00,
2013-08-01 07:24:00,-999.9,-99.9,29.99,North,32767,-999.0,-999.0,255,-99.99,,,0.00,Wunderground v.1.15,2013-08-01 11:24:00,
2013-08-01 07:25:00,-999.9,-99.9,29.99,North,32767,-999.0,-999.0,255,-99.99,,,0.00,Wunderground v.1.15,2013-08-01 11:25:00,
2013-08-01 07:27:00,-999.9,-99.9,29.99,North,32767,-999.0,-999.0,255,-99.99,,,0.00,Wunderground v.1.15,2013-08-01 11:27:00,
2013-08-01 07:32:00,-999.9,-99.9,29.99,North,32767,-999.0,-999.0,255,-99.99,,,0.00,Wunderground v.1.15,2013-08-01 11:32:00,
2013-08-01 07:34:00,-999.9,-99.9,29.99,North,32767,-999.0,-999.0,255,-99.99,,,0.00,Wunderground v.1.15,2013-08-01 11:34:00,
2013-08-01 07:35:00,-999.9,-99.9,29.99,North,32767,-999.0,-999.0,255,-99.99,,,0.00,Wunderground v.1.15,2013-08-01 11:35:00,
2013-08-01 07:38:00,71.8,70.6,30.00,ESE,117,1.0,2.0,96,0.00,,,0.00,Wunderground v.1.15,2013-08-01 11:38:00,
2013-08-01 07:39:00,71.8,70.6,30.00,ESE,117,0.0,2.0,96,0.00,,,0.00,Wunderground v.1.15,2013-08-01 11:39:00,
2013-08-01 07:41:00,71.9,70.7,30.00,East,96,2.0,2.0,96,0.00,,,0.00,Wunderground v.1.15,2013-08-01 11:41:00,
2013-08-01 07:44:00,71.9,70.7,30.00,East,86,1.0,2.0,96,0.00,,,0.00,Wunderground v.1.15,2013-08-01 11:44:00,
2013-08-01 07:45:00,72.0,70.8,30.00,North,9,1.0,2.0,96,0.00,,,0.00,Wunderground v.1.15,2013-08-01 11:45:00,
2013-08-01 07:46:00,72.1,70.9,29.99,East,98,1.0,2.0,96,0.00,,,0.00,Wunderground v.1.15,2013-08-01 11:46:00,
2013-08-01 07:49:00,72.2,71.0,29.99,NW,325,2.0,3.0,96,0.00,,,0.00,Wunderground v.1.15,2013-08-01 11:49:00,
2013-08-01 07:51:00,72.3,71.1,29.99,NNE,18,2.0,3.0,96,0.00,,,0.00,Wunderground v.1.15,2013-08-01 11:51:00,
2013-08-01 07:52:00,72.3,71.1,29.99,NNE,17,2.0,3.0,96,0.00,,,0.00,Wunderground v.1.15,2013-08-01 11:52:00,
2013-08-01 07:56:00,72.4,71.2,29.99,NNE,26,0.0,3.0,96,0.00,,,0.00,Wunderground v.1.15,2013-08-01 11:56:00,
2013-08-01 07:57:00,72.4,71.2,29.99,NNE,26,0.0,3.0,96,0.00,,,0.00,Wunderground v.1.15,2013-08-01 11:57:00,
2013-08-01 08:02:00,72.4,70.9,29.99,East,89,1.0,3.0,95,0.00,,,0.00,Wunderground v.1.15,2013-08-01 12:02:00,
2013-08-01 08:04:00,72.5,71.0,29.99,NE,56,1.0,3.0,95,0.00,,,0.00,Wunderground v.1.15,2013-08-01 12:04:00,
2013-08-01 08:08:00,72.6,71.1,29.99,NNW,346,1.0,3.0,95,0.00,,,0.00,Wunderground v.1.15,2013-08-01 12:08:00,
2013-08-01 08:09:00,72.7,71.2,30.00,NNE,14,3.0,3.0,95,0.00,,,0.00,Wunderground v.1.15,2013-08-01 12:09:00,
2013-08-01 08:10:00,72.7,71.2,30.00,NNE,16,4.0,4.0,95,0.00,,,0.00,Wunderground v.1.15,2013-08-01 12:10:00,
2013-08-01 08:13:00,72.7,71.2,30.00,NNE,29,5.0,5.0,95,0.00,,,0.00,Wunderground v.1.15,2013-08-01 12:13:00,
2013-08-01 08:14:00,72.7,71.2,30.00,North,11,2.0,5.0,95,0.00,,,0.00,Wunderground v.1.15,2013-08-01 12:14:00,
2013-08-01 08:17:00,72.7,71.2,30.00,NE,38,3.0,5.0,95,0.00,,,0.00,Wunderground v.1.15,2013-08-01 12:17:00,
2013-08-01 08:18:00,72.7,71.2,30.00,NNW,330,3.0,5.0,95,0.00,,,0.00,Wunderground v.1.15,2013-08-01 12:18:00,
2013-08-01 08:19:00,72.7,71.2,30.00,SE,125,1.0,5.0,95,0.00,,,0.00,Wunderground v.1.15,2013-08-01 12:19:00,
2013-08-01 08:22:00,72.7,71.2,30.00,North,356,2.0,4.0,95,0.00,,,0.00,Wunderground v.1.15,2013-08-01 12:22:00,
2013-08-01 08:23:00,72.7,71.2,30.00,SE,136,3.0,4.0,95,0.00,,,0.00,Wunderground v.1.15,2013-08-01 12:23:00,
2013-08-01 08:27:00,72.7,71.2,30.00,NE,36,2.0,5.0,95,0.00,,,0.00,Wunderground v.1.15,2013-08-01 12:27:00,
2013-08-01 08:29:00,72.7,71.2,30.00,NNW,338,1.0,5.0,95,0.00,,,0.00,Wunderground v.1.15,2013-08-01 12:29:00,
2013-08-01 08:32:00,72.7,71.2,30.00,NNE,26,2.0,6.0,95,0.00,,,0.00,Wunderground v.1.15,2013-08-01 12:32:00,
2013-08-01 08:34:00,72.8,71.3,30.00,NNE,27,0.0,6.0,95,0.00,,,0.00,Wunderground v.1.15,2013-08-01 12:34:00,
2013-08-01 08:38:00,72.8,71.3,30.00,East,98,1.0,6.0,95,0.00,,,0.00,Wunderground v.1.15,2013-08-01 12:38:00,
2013-08-01 08:39:00,72.8,71.3,30.00,East,98,0.0,6.0,95,0.00,,,0.00,Wunderground v.1.15,2013-08-01 12:39:00,
2013-08-01 08:43:00,72.9,71.1,30.01,ENE,77,2.0,3.0,94,0.00,,,0.00,Wunderground v.1.15,2013-08-01 12:43:00,
2013-08-01 08:44:00,72.9,71.1,30.00,ENE,71,2.0,3.0,94,0.00,,,0.00,Wunderground v.1.15,2013-08-01 12:44:00,
2013-08-01 08:49:00,73.1,71.3,30.01,SSE,163,1.0,3.0,94,0.00,,,0.00,Wunderground v.1.15,2013-08-01 12:49:00,
2013-08-01 08:51:00,73.1,71.3,30.01,ENE,78,3.0,3.0,94,0.00,,,0.00,Wunderground v.1.15,2013-08-01 12:51:00,
2013-08-01 08:55:00,73.3,71.5,30.00,NE,47,5.0,5.0,94,0.00,,,0.00,Wunderground v.1.15,2013-08-01 12:55:00,
2013-08-01 08:56:00,73.3,71.2,30.01,NNE,32,4.0,5.0,93,0.00,,,0.00,Wunderground v.1.15,2013-08-01 12:56:00,
2013-08-01 08:57:00,73.3,71.2,30.01,East,84,2.0,5.0,93,0.00,,,0.00,Wunderground v.1.15,2013-08-01 12:57:00,
2013-08-01 09:03:00,73.6,71.4,30.01,East,84,2.0,2.0,93,0.00,,,0.00,Wunderground v.1.15,2013-08-01 13:03:00,
2013-08-01 09:08:00,73.7,71.5,30.01,North,9,1.0,2.0,93,0.00,,,0.00,Wunderground v.1.15,2013-08-01 13:08:00,
2013-08-01 09:09:00,73.7,71.5,30.00,NE,53,2.0,3.0,93,0.00,,,0.00,Wunderground v.1.15,2013-08-01 13:09:00,
2013-08-01 09:14:00,73.6,71.4,30.00,NE,41,1.0,5.0,93,0.00,,,0.00,Wunderground v.1.15,2013-08-01 13:14:00,
2013-08-01 09:19:00,73.9,71.7,30.00,ESE,108,2.0,5.0,93,0.00,,,0.00,Wunderground v.1.15,2013-08-01 13:19:00,
2013-08-01 09:20:00,73.9,71.7,30.00,ESE,104,1.0,2.0,93,0.00,,,0.00,Wunderground v.1.15,2013-08-01 13:20:00,
2013-08-01 09:25:00,74.0,71.8,30.00,NE,53,5.0,5.0,93,0.00,,,0.00,Wunderground v.1.15,2013-08-01 13:25:00,
2013-08-01 09:26:00,74.0,71.8,30.00,North,356,5.0,5.0,93,0.00,,,0.00,Wunderground v.1.15,2013-08-01 13:26:00,
2013-08-01 09:32:00,74.2,71.7,30.00,ENE,64,3.0,4.0,92,0.00,,,0.00,Wunderground v.1.15,2013-08-01 13:32:00,
2013-08-01 09:33:00,74.2,71.7,30.00,NE,38,5.0,6.0,92,0.00,,,0.00,Wunderground v.1.15,2013-08-01 13:33:00,
2013-08-01 09:37:00,74.2,71.7,30.00,NNE,30,4.0,6.0,92,0.00,,,0.00,Wunderground v.1.15,2013-08-01 13:37:00,
2013-08-01 09:39:00,74.2,71.7,30.00,NNE,25,2.0,6.0,92,0.00,,,0.00,Wunderground v.1.15,2013-08-01 13:39:00,
2013-08-01 09:43:00,74.4,71.9,30.00,East,79,1.0,3.0,92,0.00,,,0.00,Wunderground v.1.15,2013-08-01 13:43:00,
2013-08-01 09:44:00,74.5,72.0,30.00,NW,304,1.0,3.0,92,0.00,,,0.00,Wunderground v.1.15,2013-08-01 13:44:00,
2013-08-01 09:45:00,74.6,72.1,30.00,North,349,0.0,3.0,92,0.00,,,0.00,Wunderground v.1.15,2013-08-01 13:45:00,
2013-08-01 09:48:00,74.8,72.0,30.00,East,79,2.0,3.0,91,0.00,,,0.00,Wunderground v.1.15,2013-08-01 13:48:00,
2013-08-01 09:50:00,74.9,71.8,30.00,SE,143,2.0,3.0,90,0.00,,,0.00,Wunderground v.1.15,2013-08-01 13:50:00,
2013-08-01 09:53:00,75.1,72.0,30.00,SSE,156,2.0,3.0,90,0.00,,,0.00,Wunderground v.1.15,2013-08-01 13:53:00,
2013-08-01 09:55:00,75.2,72.1,30.00,NE,46,2.0,3.0,90,0.00,,,0.00,Wunderground v.1.15,2013-08-01 13:55:00,
2013-08-01 09:59:00,75.5,72.0,30.00,SSE,166,2.0,4.0,89,0.00,,,0.00,Wunderground v.1.15,2013-08-01 13:59:00,
2013-08-01 10:01:00,75.5,72.0,30.00,ESE,117,2.0,3.0,89,0.00,,,0.00,Wunderground v.1.15,2013-08-01 14:01:00,
2013-08-01 10:02:00,75.5,72.4,30.00,NNW,343,5.0,5.0,90,0.00,,,0.00,Wunderground v.1.15,2013-08-01 14:02:00,
2013-08-01 10:05:00,75.5,72.0,30.00,NNE,33,3.0,5.0,89,0.00,,,0.00,Wunderground v.1.15,2013-08-01 14:05:00,
2013-08-01 10:08:00,75.5,72.0,30.00,East,98,2.0,5.0,89,0.00,,,0.00,Wunderground v.1.15,2013-08-01 14:08:00,
2013-08-01 10:13:00,75.5,72.0,30.00,ESE,120,1.0,3.0,89,0.00,,,0.00,Wunderground v.1.15,2013-08-01 14:13:00,
2013-08-01 10:14:00,75.6,72.1,30.00,SE,145,1.0,3.0,89,0.00,,,0.00,Wunderground v.1.15,2013-08-01 14:14:00,
2013-08-01 10:18:00,75.9,72.4,30.00,East,79,0.0,3.0,89,0.00,,,0.00,Wunderground v.1.15,2013-08-01 14:18:00,
2013-08-01 10:19:00,75.9,72.1,30.00,East,101,2.0,3.0,88,0.00,,,0.00,Wunderground v.1.15,2013-08-01 14:19:00,
2013-08-01 10:21:00,76.0,72.2,30.00,East,94,1.0,1.0,88,0.00,,,0.00,Wunderground v.1.15,2013-08-01 14:21:00,
2013-08-01 10:24:00,76.2,72.0,30.00,ESE,122,3.0,4.0,87,0.00,,,0.00,Wunderground v.1.15,2013-08-01 14:24:00,
2013-08-01 10:25:00,76.3,72.1,30.00,SE,140,1.0,4.0,87,0.00,,,0.00,Wunderground v.1.15,2013-08-01 14:25:00,
2013-08-01 10:27:00,76.4,72.6,30.01,ESE,123,0.0,4.0,88,0.00,,,0.00,Wunderground v.1.15,2013-08-01 14:27:00,
2013-08-01 10:30:00,76.7,72.5,30.01,SSE,150,3.0,3.0,87,0.00,,,0.00,Wunderground v.1.15,2013-08-01 14:30:00,
2013-08-01 10:31:00,76.7,72.5,30.01,ENE,78,3.0,4.0,87,0.00,,,0.00,Wunderground v.1.15,2013-08-01 14:31:00,
2013-08-01 10:32:00,76.8,72.6,30.01,South,169,1.0,4.0,87,0.00,,,0.00,Wunderground v.1.15,2013-08-01 14:32:00,
2013-08-01 10:37:00,76.9,72.4,30.01,ESE,117,2.0,6.0,86,0.00,,,0.00,Wunderground v.1.15,2013-08-01 14:37:00,
2013-08-01 10:42:00,77.3,72.8,30.01,North,6,1.0,3.0,86,0.00,,,0.00,Wunderground v.1.15,2013-08-01 14:42:00,
2013-08-01 10:43:00,77.3,72.8,30.01,North,6,1.0,3.0,86,0.00,,,0.00,Wunderground v.1.15,2013-08-01 14:43:00,
2013-08-01 10:48:00,77.7,73.2,30.01,SE,140,1.0,4.0,86,0.00,,,0.00,Wunderground v.1.15,2013-08-01 14:48:00,
2013-08-01 10:51:00,77.8,72.9,30.01,SSE,148,3.0,6.0,85,0.00,,,0.00,Wunderground v.1.15,2013-08-01 14:51:00,
2013-08-01 10:56:00,77.9,73.0,30.01,SSE,148,1.0,6.0,85,0.00,,,0.00,Wunderground v.1.15,2013-08-01 14:56:00,
2013-08-01 10:57:00,77.9,73.0,30.01,SE,125,1.0,6.0,85,0.00,,,0.00,Wunderground v.1.15,2013-08-01 14:57:00,
2013-08-01 11:02:00,78.3,73.4,30.00,NE,53,2.0,2.0,85,0.00,,,0.00,Wunderground v.1.15,2013-08-01 15:02:00,
2013-08-01 11:03:00,78.4,73.5,30.00,NE,53,0.0,2.0,85,0.00,,,0.00,Wunderground v.1.15,2013-08-01 15:03:00,
2013-08-01 11:07:00,78.7,73.1,30.00,SSW,202,3.0,5.0,83,0.00,,,0.00,Wunderground v.1.15,2013-08-01 15:07:00,
2013-08-01 11:08:00,78.8,73.2,30.00,ESE,111,3.0,5.0,83,0.00,,,0.00,Wunderground v.1.15,2013-08-01 15:08:00,
2013-08-01 11:09:00,78.7,73.1,30.00,SSE,160,4.0,5.0,83,0.00,,,0.00,Wunderground v.1.15,2013-08-01 15:09:00,
2013-08-01 11:12:00,78.9,72.9,30.00,SE,125,2.0,3.0,82,0.00,,,0.00,Wunderground v.1.15,2013-08-01 15:12:00,
2013-08-01 11:14:00,78.9,73.3,30.00,ESE,114,2.0,3.0,83,0.00,,,0.00,Wunderground v.1.15,2013-08-01 15:14:00,
2013-08-01 11:15:00,78.9,73.3,30.00,South,188,3.0,4.0,83,0.00,,,0.00,Wunderground v.1.15,2013-08-01 15:15:00,
2013-08-01 11:17:00,78.9,72.9,30.00,SSE,155,2.0,6.0,82,0.00,,,0.00,Wunderground v.1.15,2013-08-01 15:17:00,
2013-08-01 11:21:00,79.0,73.0,30.00,SSW,194,2.0,3.0,82,0.00,,,0.00,Wunderground v.1.15,2013-08-01 15:21:00,
2013-08-01 11:23:00,79.1,73.1,30.00,SE,131,0.0,3.0,82,0.00,,,0.00,Wunderground v.1.15,2013-08-01 15:23:00,
2013-08-01 11:26:00,79.6,73.6,30.00,South,172,1.0,3.0,82,0.00,,,0.00,Wunderground v.1.15,2013-08-01 15:26:00,
2013-08-01 11:28:00,79.7,73.3,30.00,SSE,156,3.0,4.0,81,0.00,,,0.00,Wunderground v.1.15,2013-08-01 15:28:00,
2013-08-01 11:29:00,79.7,73.3,30.00,SE,145,2.0,4.0,81,0.00,,,0.00,Wunderground v.1.15,2013-08-01 15:29:00,
2013-08-01 11:32:00,79.8,73.8,30.00,NE,36,1.0,2.0,82,0.00,,,0.00,Wunderground v.1.15,2013-08-01 15:32:00,
2013-08-01 11:33:00,79.9,73.5,30.00,NE,50,1.0,2.0,81,0.00,,,0.00,Wunderground v.1.15,2013-08-01 15:33:00,
2013-08-01 11:35:00,79.8,73.4,30.00,ENE,67,1.0,2.0,81,0.00,,,0.00,Wunderground v.1.15,2013-08-01 15:35:00,
2013-08-01 11:38:00,79.7,73.7,30.00,ESE,115,0.0,3.0,82,0.00,,,0.00,Wunderground v.1.15,2013-08-01 15:38:00,
2013-08-01 11:40:00,79.8,73.8,30.00,ESE,114,1.0,1.0,82,0.00,,,0.00,Wunderground v.1.15,2013-08-01 15:40:00,
2013-08-01 11:43:00,80.1,73.7,29.99,North,9,3.0,5.0,81,0.00,,,0.00,Wunderground v.1.15,2013-08-01 15:43:00,
2013-08-01 11:49:00,80.1,73.0,29.99,North,4,1.0,5.0,79,0.00,,,0.00,Wunderground v.1.15,2013-08-01 15:49:00,
2013-08-01 11:50:00,80.3,73.6,29.99,North,3,0.0,2.0,80,0.00,,,0.00,Wunderground v.1.15,2013-08-01 15:50:00,
2013-08-01 11:52:00,80.6,74.2,29.99,SE,139,3.0,3.0,81,0.00,,,0.00,Wunderground v.1.15,2013-08-01 15:52:00,
2013-08-01 11:55:00,80.9,74.1,29.99,ESE,117,1.0,4.0,80,0.00,,,0.00,Wunderground v.1.15,2013-08-01 15:55:00,
2013-08-01 11:57:00,81.0,73.9,29.99,ESE,110,4.0,4.0,79,0.00,,,0.00,Wunderground v.1.15,2013-08-01 15:57:00,
2013-08-01 12:02:00,81.0,74.6,29.99,NE,56,2.0,2.0,81,0.00,,,0.00,Wunderground v.1.15,2013-08-01 16:02:00,
2013-08-01 12:03:00,81.1,74.3,29.99,ENE,58,0.0,2.0,80,0.00,,,0.00,Wunderground v.1.15,2013-08-01 16:03:00,
2013-08-01 12:08:00,81.5,74.4,29.99,ENE,58,2.0,2.0,79,0.00,,,0.00,Wunderground v.1.15,2013-08-01 16:08:00,
2013-08-01 12:09:00,81.5,74.4,29.99,ENE,58,0.0,2.0,79,0.00,,,0.00,Wunderground v.1.15,2013-08-01 16:09:00,
2013-08-01 12:13:00,82.0,74.5,29.99,ESE,114,3.0,4.0,78,0.00,,,0.00,Wunderground v.1.15,2013-08-01 16:13:00,
2013-08-01 12:14:00,82.1,74.2,29.99,East,86,1.0,4.0,77,0.00,,,0.00,Wunderground v.1.15,2013-08-01 16:14:00,
2013-08-01 12:18:00,82.1,74.2,29.99,SE,138,1.0,5.0,77,0.00,,,0.00,Wunderground v.1.15,2013-08-01 16:18:00,
2013-08-01 12:20:00,82.0,74.1,29.98,South,171,2.0,2.0,77,0.00,,,0.00,Wunderground v.1.15,2013-08-01 16:20:00,
2013-08-01 12:23:00,82.3,74.4,29.99,SW,229,0.0,2.0,77,0.00,,,0.00,Wunderground v.1.15,2013-08-01 16:23:00,
2013-08-01 12:24:00,82.3,74.4,29.99,SW,229,0.0,2.0,77,0.00,,,0.00,Wunderground v.1.15,2013-08-01 16:24:00,
2013-08-01 12:28:00,82.6,74.3,29.99,SSW,204,1.0,2.0,76,0.00,,,0.00,Wunderground v.1.15,2013-08-01 16:28:00,
2013-08-01 12:29:00,82.7,74.4,29.99,SSW,204,0.0,2.0,76,0.00,,,0.00,Wunderground v.1.15,2013-08-01 16:29:00,
2013-08-01 12:34:00,82.8,75.2,29.98,South,175,6.0,6.0,78,0.00,,,0.00,Wunderground v.1.15,2013-08-01 16:34:00,
2013-08-01 12:39:00,82.6,73.9,29.98,WSW,246,1.0,6.0,75,0.00,,,0.00,Wunderground v.1.15,2013-08-01 16:39:00,
2013-08-01 12:40:00,82.7,74.8,29.98,WSW,250,0.0,3.0,77,0.00,,,0.00,Wunderground v.1.15,2013-08-01 16:40:00,
2013-08-01 12:41:00,82.9,75.3,29.98,NNW,327,1.0,3.0,78,0.00,,,0.00,Wunderground v.1.15,2013-08-01 16:41:00,
2013-08-01 12:45:00,83.3,74.9,29.98,NNW,342,0.0,3.0,76,0.00,,,0.00,Wunderground v.1.15,2013-08-01 16:45:00,
2013-08-01 12:46:00,83.5,75.1,29.98,NE,53,2.0,3.0,76,0.00,,,0.00,Wunderground v.1.15,2013-08-01 16:46:00,
2013-08-01 12:50:00,83.1,74.7,29.98,NE,56,1.0,3.0,76,0.00,,,0.00,Wunderground v.1.15,2013-08-01 16:50:00,
2013-08-01 12:51:00,83.0,74.3,29.98,ENE,70,1.0,3.0,75,0.00,,,0.00,Wunderground v.1.15,2013-08-01 16:51:00,
2013-08-01 12:56:00,83.6,75.2,29.97,NE,34,3.0,3.0,76,0.00,,,0.00,Wunderground v.1.15,2013-08-01 16:56:00,
2013-08-01 12:57:00,83.8,75.0,29.98,NE,53,1.0,3.0,75,0.00,,,0.00,Wunderground v.1.15,2013-08-01 16:57:00,
2013-08-01 13:01:00,84.2,76.2,29.97,NNE,12,2.0,2.0,77,0.00,,,0.00,Wunderground v.1.15,2013-08-01 17:01:00,
2013-08-01 13:02:00,84.3,75.1,29.97,North,8,0.0,2.0,74,0.00,,,0.00,Wunderground v.1.15,2013-08-01 17:02:00,
2013-08-01 13:07:00,84.5,74.9,29.97,NE,39,1.0,5.0,73,0.00,,,0.00,Wunderground v.1.15,2013-08-01 17:07:00,
2013-08-01 13:09:00,84.5,74.9,29.97,WSW,248,1.0,5.0,73,0.00,,,0.00,Wunderground v.1.15,2013-08-01 17:09:00,
2013-08-01 13:14:00,84.8,74.8,29.97,SE,140,0.0,2.0,72,0.00,,,0.00,Wunderground v.1.15,2013-08-01 17:14:00,
2013-08-01 13:15:00,85.2,75.6,29.97,NE,34,2.0,2.0,73,0.00,,,0.00,Wunderground v.1.15,2013-08-01 17:15:00,
2013-08-01 13:20:00,85.2,74.7,29.97,NE,36,2.0,2.0,71,0.00,,,0.00,Wunderground v.1.15,2013-08-01 17:20:00,
2013-08-01 13:26:00,84.3,75.1,29.97,ESE,122,0.0,5.0,74,0.00,,,0.00,Wunderground v.1.15,2013-08-01 17:26:00,
2013-08-01 13:31:00,84.2,74.6,29.96,East,91,2.0,3.0,73,0.00,,,0.00,Wunderground v.1.15,2013-08-01 17:31:00,
2013-08-01 13:32:00,84.2,75.8,29.96,NNE,15,4.0,4.0,76,0.00,,,0.00,Wunderground v.1.15,2013-08-01 17:32:00,
2013-08-01 13:36:00,84.2,74.6,29.96,NNE,23,3.0,5.0,73,0.00,,,0.00,Wunderground v.1.15,2013-08-01 17:36:00,
2013-08-01 13:37:00,84.2,75.4,29.96,NW,308,5.0,5.0,75,0.00,,,0.00,Wunderground v.1.15,2013-08-01 17:37:00,
2013-08-01 13:40:00,84.4,75.6,29.95,NNE,20,7.0,7.0,75,0.00,,,0.00,Wunderground v.1.15,2013-08-01 17:40:00,
2013-08-01 13:41:00,84.5,75.3,29.95,NNE,33,7.0,7.0,74,0.00,,,0.00,Wunderground v.1.15,2013-08-01 17:41:00,
2013-08-01 13:42:00,84.3,74.3,29.95,NE,38,1.0,7.0,72,0.00,,,0.00,Wunderground v.1.15,2013-08-01 17:42:00,
2013-08-01 13:45:00,84.2,75.0,29.95,WNW,294,1.0,7.0,74,0.00,,,0.00,Wunderground v.1.15,2013-08-01 17:45:00,
2013-08-01 13:47:00,84.3,75.1,29.95,NE,41,1.0,7.0,74,0.00,,,0.00,Wunderground v.1.15,2013-08-01 17:47:00,
2013-08-01 13:48:00,84.4,75.2,29.95,NE,41,0.0,7.0,74,0.00,,,0.00,Wunderground v.1.15,2013-08-01 17:48:00,
2013-08-01 13:50:00,84.8,75.6,29.95,North,350,1.0,3.0,74,0.00,,,0.00,Wunderground v.1.15,2013-08-01 17:50:00,
2013-08-01 13:53:00,85.0,75.4,29.94,ENE,76,4.0,7.0,73,0.00,,,0.00,Wunderground v.1.15,2013-08-01 17:53:00,
2013-08-01 13:55:00,85.0,75.0,29.94,NNE,22,4.0,7.0,72,0.00,,,0.00,Wunderground v.1.15,2013-08-01 17:55:00,
2013-08-01 13:59:00,84.8,75.6,29.94,NNE,27,4.0,7.0,74,0.00,,,0.00,Wunderground v.1.15,2013-08-01 17:59:00,
2013-08-01 14:03:00,84.8,74.3,29.94,WSW,240,0.0,9.0,71,0.00,,,0.00,Wunderground v.1.15,2013-08-01 18:03:00,
2013-08-01 14:04:00,84.9,74.9,29.94,NNW,337,4.0,9.0,72,0.00,,,0.00,Wunderground v.1.15,2013-08-01 18:04:00,
2013-08-01 14:06:00,85.1,75.1,29.94,North,1,4.0,9.0,72,0.00,,,0.00,Wunderground v.1.15,2013-08-01 18:06:00,
2013-08-01 14:09:00,85.0,75.0,29.94,East,96,2.0,9.0,72,0.00,,,0.00,Wunderground v.1.15,2013-08-01 18:09:00,
2013-08-01 14:11:00,85.1,74.6,29.94,NNE,26,2.0,6.0,71,0.00,,,0.00,Wunderground v.1.15,2013-08-01 18:11:00,
2013-08-01 14:12:00,85.2,75.6,29.94,NW,305,3.0,6.0,73,0.00,,,0.00,Wunderground v.1.15,2013-08-01 18:12:00,
2013-08-01 14:16:00,85.3,74.0,29.94,NE,53,2.0,6.0,69,0.00,,,0.00,Wunderground v.1.15,2013-08-01 18:16:00,
2013-08-01 14:18:00,85.4,74.1,29.94,SW,229,1.0,6.0,69,0.00,,,0.00,Wunderground v.1.15,2013-08-01 18:18:00,
2013-08-01 14:21:00,85.9,74.5,29.95,NW,325,3.0,4.0,69,0.00,,,0.00,Wunderground v.1.15,2013-08-01 18:21:00,
2013-08-01 14:23:00,86.6,75.2,29.95,East,89,3.0,4.0,69,0.00,,,0.00,Wunderground v.1.15,2013-08-01 18:23:00,
2013-08-01 14:26:00,86.7,74.9,29.94,North,359,3.0,7.0,68,0.00,,,0.00,Wunderground v.1.15,2013-08-01 18:26:00,
2013-08-01 14:27:00,86.5,74.7,29.94,North,356,3.0,7.0,68,0.00,,,0.00,Wunderground v.1.15,2013-08-01 18:27:00,
2013-08-01 14:30:00,86.3,74.5,29.94,North,356,3.0,3.0,68,0.00,,,0.00,Wunderground v.1.15,2013-08-01 18:30:00,
2013-08-01 14:32:00,86.2,74.4,29.94,North,3,3.0,3.0,68,0.00,,,0.00,Wunderground v.1.15,2013-08-01 18:32:00,
2013-08-01 14:33:00,86.4,76.7,29.94,NNE,18,0.0,4.0,73,0.00,,,0.00,Wunderground v.1.15,2013-08-01 18:33:00,
2013-08-01 14:36:00,86.7,74.4,29.94,NNW,338,4.0,5.0,67,0.00,,,0.00,Wunderground v.1.15,2013-08-01 18:36:00,
2013-08-01 14:37:00,86.7,74.4,29.94,ENE,60,2.0,5.0,67,0.00,,,0.00,Wunderground v.1.15,2013-08-01 18:37:00,
2013-08-01 14:40:00,86.8,75.0,29.94,ENE,71,3.0,5.0,68,0.00,,,0.00,Wunderground v.1.15,2013-08-01 18:40:00,
2013-08-01 14:41:00,86.8,74.5,29.94,NNE,25,5.0,8.0,67,0.00,,,0.00,Wunderground v.1.15,2013-08-01 18:41:00,
2013-08-01 14:45:00,86.4,75.0,29.94,East,89,1.0,8.0,69,0.00,,,0.00,Wunderground v.1.15,2013-08-01 18:45:00,
2013-08-01 14:46:00,86.4,75.0,29.94,ESE,117,2.0,8.0,69,0.00,,,0.00,Wunderground v.1.15,2013-08-01 18:46:00,
2013-08-01 14:51:00,86.6,75.2,29.93,NNE,27,3.0,6.0,69,0.00,,,0.00,Wunderground v.1.15,2013-08-01 18:51:00,
2013-08-01 14:53:00,86.6,74.3,29.93,West,278,2.0,6.0,67,0.00,,,0.00,Wunderground v.1.15,2013-08-01 18:53:00,
2013-08-01 14:57:00,87.0,75.2,29.93,WNW,294,1.0,6.0,68,0.00,,,0.00,Wunderground v.1.15,2013-08-01 18:57:00,
2013-08-01 15:02:00,87.0,73.8,29.93,NNW,333,4.0,5.0,65,0.00,,,0.00,Wunderground v.1.15,2013-08-01 19:02:00,
2013-08-01 15:03:00,86.9,74.2,29.93,NE,36,4.0,6.0,66,0.00,,,0.00,Wunderground v.1.15,2013-08-01 19:03:00,
2013-08-01 15:07:00,87.2,73.5,29.93,West,270,1.0,6.0,64,0.00,,,0.00,Wunderground v.1.15,2013-08-01 19:07:00,
2013-08-01 15:08:00,87.2,73.5,29.93,West,265,1.0,6.0,64,0.00,,,0.00,Wunderground v.1.15,2013-08-01 19:08:00,
2013-08-01 15:11:00,87.5,74.7,29.93,NE,53,1.0,3.0,66,0.00,,,0.00,Wunderground v.1.15,2013-08-01 19:11:00,
2013-08-01 15:13:00,87.7,74.5,29.93,NE,36,3.0,3.0,65,0.00,,,0.00,Wunderground v.1.15,2013-08-01 19:13:00,
2013-08-01 15:15:00,87.9,75.1,29.93,NE,36,5.0,6.0,66,0.00,,,0.00,Wunderground v.1.15,2013-08-01 19:15:00,
2013-08-01 15:18:00,87.7,74.5,29.93,ENE,78,2.0,6.0,65,0.00,,,0.00,Wunderground v.1.15,2013-08-01 19:18:00,
2013-08-01 15:21:00,87.7,75.8,29.93,NW,321,3.0,3.0,68,0.00,,,0.00,Wunderground v.1.15,2013-08-01 19:21:00,
2013-08-01 15:23:00,87.8,75.9,29.93,South,172,1.0,3.0,68,0.00,,,0.00,Wunderground v.1.15,2013-08-01 19:23:00,
2013-08-01 15:24:00,87.7,75.8,29.94,WSW,240,9.0,9.0,68,0.00,,,0.00,Wunderground v.1.15,2013-08-01 19:24:00,
2013-08-01 15:28:00,84.7,70.7,29.95,SSE,159,4.0,11.0,63,0.00,,,0.00,Wunderground v.1.15,2013-08-01 19:28:00,
2013-08-01 15:29:00,83.9,70.9,29.95,South,169,9.0,11.0,65,0.00,,,0.00,Wunderground v.1.15,2013-08-01 19:29:00,
2013-08-01 15:33:00,81.2,69.2,29.95,South,186,5.0,10.0,67,0.00,,,0.00,Wunderground v.1.15,2013-08-01 19:33:00,
2013-08-01 15:37:00,79.0,69.2,29.95,SW,225,5.0,10.0,72,0.00,,,0.00,Wunderground v.1.15,2013-08-01 19:37:00,
2013-08-01 15:39:00,78.3,68.9,29.95,West,266,0.0,10.0,73,0.00,,,0.00,Wunderground v.1.15,2013-08-01 19:39:00,
2013-08-01 15:44:00,77.2,68.3,29.95,SW,215,4.0,6.0,74,0.00,,,0.00,Wunderground v.1.15,2013-08-01 19:44:00,
2013-08-01 15:49:00,76.7,68.6,29.95,SW,235,4.0,6.0,76,0.00,,,0.00,Wunderground v.1.15,2013-08-01 19:49:00,
2013-08-01 15:50:00,76.6,68.5,29.95,WSW,253,4.0,6.0,76,0.00,,,0.00,Wunderground v.1.15,2013-08-01 19:50:00,
2013-08-01 15:55:00,76.1,68.7,29.95,SW,235,4.0,8.0,78,0.00,,,0.00,Wunderground v.1.15,2013-08-01 19:55:00,
2013-08-01 16:00:00,75.7,68.7,29.95,SW,235,6.0,8.0,79,0.00,,,0.00,Wunderground v.1.15,2013-08-01 20:00:00,
2013-08-01 16:05:00,75.4,69.2,29.94,SW,233,5.0,5.0,81,0.00,,,0.00,Wunderground v.1.15,2013-08-01 20:05:00,
2013-08-01 16:06:00,75.4,68.8,29.95,WSW,257,1.0,5.0,80,0.00,,,0.00,Wunderground v.1.15,2013-08-01 20:06:00,
2013-08-01 16:08:00,75.4,69.2,29.95,West,281,0.0,5.0,81,0.00,,,0.00,Wunderground v.1.15,2013-08-01 20:08:00,
2013-08-01 16:12:00,75.4,68.4,29.95,West,267,3.0,4.0,79,0.00,,,0.00,Wunderground v.1.15,2013-08-01 20:12:00,
2013-08-01 16:14:00,75.2,68.2,29.95,WSW,248,3.0,4.0,79,0.00,,,0.00,Wunderground v.1.15,2013-08-01 20:14:00,
2013-08-01 16:17:00,75.1,68.1,29.95,SW,221,0.0,4.0,79,0.00,,,0.00,Wunderground v.1.15,2013-08-01 20:17:00,
2013-08-01 16:19:00,75.1,68.5,29.95,East,82,0.0,4.0,80,0.00,,,0.00,Wunderground v.1.15,2013-08-01 20:19:00,
2013-08-01 16:20:00,75.2,69.0,29.95,NNE,22,0.0,1.0,81,0.00,,,0.00,Wunderground v.1.15,2013-08-01 20:20:00,
2013-08-01 16:22:00,75.3,69.1,29.95,NNE,23,0.0,1.0,81,0.00,,,0.00,Wunderground v.1.15,2013-08-01 20:22:00,
2013-08-01 16:25:00,75.5,70.3,29.95,North,358,2.0,2.0,84,0.00,,,0.00,Wunderground v.1.15,2013-08-01 20:25:00,
2013-08-01 16:27:00,75.6,69.7,29.96,ENE,63,1.0,3.0,82,0.00,,,0.00,Wunderground v.1.15,2013-08-01 20:27:00,
2013-08-01 16:28:00,75.6,70.1,29.96,NNE,30,1.0,3.0,83,0.00,,,0.00,Wunderground v.1.15,2013-08-01 20:28:00,
2013-08-01 16:30:00,75.5,70.0,29.96,NNE,33,1.0,3.0,83,0.00,,,0.00,Wunderground v.1.15,2013-08-01 20:30:00,
2013-08-01 16:32:00,75.5,69.6,29.96,ENE,73,0.0,3.0,82,0.00,,,0.00,Wunderground v.1.15,2013-08-01 20:32:00,
2013-08-01 16:33:00,75.4,69.5,29.96,East,94,1.0,3.0,82,0.00,,,0.01,Wunderground v.1.15,2013-08-01 20:33:00,
2013-08-01 16:36:00,75.3,70.1,29.96,NNW,340,1.0,3.0,84,0.00,,,0.01,Wunderground v.1.15,2013-08-01 20:36:00,
2013-08-01 16:37:00,75.4,70.9,29.96,NNE,20,2.0,3.0,86,0.00,,,0.01,Wunderground v.1.15,2013-08-01 20:37:00,
2013-08-01 16:39:00,75.4,71.3,29.96,NNW,339,1.0,3.0,87,0.00,,,0.01,Wunderground v.1.15,2013-08-01 20:39:00,
2013-08-01 16:42:00,75.3,71.2,29.95,NNW,340,0.0,3.0,87,0.00,,,0.01,Wunderground v.1.15,2013-08-01 20:42:00,
2013-08-01 16:44:00,75.3,71.8,29.95,North,359,0.0,3.0,89,0.00,,,0.01,Wunderground v.1.15,2013-08-01 20:44:00,
2013-08-01 16:47:00,75.4,72.3,29.95,North,1,0.0,3.0,90,0.00,,,0.01,Wunderground v.1.15,2013-08-01 20:47:00,
2013-08-01 16:49:00,75.4,71.6,29.95,North,4,2.0,3.0,88,0.00,,,0.01,Wunderground v.1.15,2013-08-01 20:49:00,
2013-08-01 16:52:00,75.3,71.8,29.95,NNW,335,1.0,2.0,89,0.00,,,0.01,Wunderground v.1.15,2013-08-01 20:52:00,
2013-08-01 16:54:00,75.3,71.8,29.95,NNW,340,1.0,2.0,89,0.00,,,0.01,Wunderground v.1.15,2013-08-01 20:54:00,
2013-08-01 16:58:00,75.2,71.4,29.95,ESE,107,0.0,4.0,88,0.00,,,0.01,Wunderground v.1.15,2013-08-01 20:58:00,
2013-08-01 16:59:00,75.3,71.2,29.95,ESE,107,0.0,4.0,87,0.00,,,0.01,Wunderground v.1.15,2013-08-01 20:59:00,
2013-08-01 17:00:00,75.3,71.2,29.95,SSW,210,0.0,1.0,87,0.00,,,0.01,Wunderground v.1.15,2013-08-01 21:00:00,
2013-08-01 17:03:00,75.6,71.5,29.95,ENE,74,1.0,1.0,87,0.00,,,0.01,Wunderground v.1.15,2013-08-01 21:03:00,
2013-08-01 17:04:00,75.7,71.9,29.95,ENE,64,0.0,1.0,88,0.00,,,0.01,Wunderground v.1.15,2013-08-01 21:04:00,
2013-08-01 17:05:00,75.8,72.0,29.95,ENE,63,0.0,1.0,88,0.00,,,0.01,Wunderground v.1.15,2013-08-01 21:05:00,
2013-08-01 17:08:00,76.1,71.9,29.94,NNW,348,3.0,3.0,87,0.00,,,0.01,Wunderground v.1.15,2013-08-01 21:08:00,
2013-08-01 17:09:00,76.2,71.4,29.94,NE,37,2.0,3.0,85,0.00,,,0.01,Wunderground v.1.15,2013-08-01 21:09:00,
2013-08-01 17:10:00,76.2,71.4,29.94,NNW,327,2.0,2.0,85,0.00,,,0.01,Wunderground v.1.15,2013-08-01 21:10:00,
2013-08-01 17:11:00,76.2,71.4,29.94,NNE,14,2.0,2.0,85,0.00,,,0.01,Wunderground v.1.15,2013-08-01 21:11:00,
2013-08-01 17:13:00,76.6,73.1,29.94,North,3,1.0,2.0,89,0.00,,,0.01,Wunderground v.1.15,2013-08-01 21:13:00,
2013-08-01 17:14:00,76.8,72.6,29.94,NE,36,2.0,2.0,87,0.00,,,0.01,Wunderground v.1.15,2013-08-01 21:14:00,
2013-08-01 17:16:00,77.1,72.9,29.94,North,9,4.0,4.0,87,0.00,,,0.01,Wunderground v.1.15,2013-08-01 21:16:00,
2013-08-01 17:18:00,77.9,73.0,29.95,ENE,74,1.0,4.0,85,0.00,,,0.01,Wunderground v.1.15,2013-08-01 21:18:00,
2013-08-01 17:20:00,78.2,73.0,29.94,ENE,65,0.0,1.0,84,0.00,,,0.01,Wunderground v.1.15,2013-08-01 21:20:00,
2013-08-01 17:21:00,78.4,72.8,29.95,West,277,1.0,4.0,83,0.00,,,0.01,Wunderground v.1.15,2013-08-01 21:21:00,
2013-08-01 17:24:00,78.8,73.9,29.94,WSW,253,0.0,4.0,85,0.00,,,0.01,Wunderground v.1.15,2013-08-01 21:24:00,
2013-08-01 17:25:00,79.2,73.6,29.94,SW,226,0.0,4.0,83,0.00,,,0.01,Wunderground v.1.15,2013-08-01 21:25:00,
2013-08-01 17:29:00,79.7,73.3,29.94,West,273,2.0,4.0,81,0.00,,,0.01,Wunderground v.1.15,2013-08-01 21:29:00,
2013-08-01 17:32:00,79.8,73.8,29.94,NNE,26,1.0,3.0,82,0.00,,,0.01,Wunderground v.1.15,2013-08-01 21:32:00,
2013-08-01 17:34:00,80.1,74.5,29.94,SW,235,1.0,4.0,83,0.00,,,0.01,Wunderground v.1.15,2013-08-01 21:34:00,
2013-08-01 17:39:00,80.6,74.6,29.94,WSW,238,2.0,4.0,82,0.00,,,0.01,Wunderground v.1.15,2013-08-01 21:39:00,
2013-08-01 17:40:00,80.6,74.6,29.94,SW,233,3.0,3.0,82,0.00,,,0.01,Wunderground v.1.15,2013-08-01 21:40:00,
2013-08-01 17:41:00,80.6,74.6,29.94,WSW,248,3.0,4.0,82,0.00,,,0.01,Wunderground v.1.15,2013-08-01 21:41:00,
2013-08-01 17:46:00,80.5,74.1,29.94,NW,308,1.0,5.0,81,0.00,,,0.01,Wunderground v.1.15,2013-08-01 21:46:00,
2013-08-01 17:52:00,81.3,74.2,29.94,ENE,75,2.0,2.0,79,0.00,,,0.01,Wunderground v.1.15,2013-08-01 21:52:00,
2013-08-01 17:53:00,81.6,74.5,29.94,SE,138,0.0,2.0,79,0.00,,,0.01,Wunderground v.1.15,2013-08-01 21:53:00,
2013-08-01 17:57:00,82.3,74.7,29.94,WSW,240,0.0,2.0,78,0.00,,,0.01,Wunderground v.1.15,2013-08-01 21:57:00,
2013-08-01 17:58:00,82.4,75.2,29.94,SW,221,1.0,2.0,79,0.00,,,0.01,Wunderground v.1.15,2013-08-01 21:58:00,
2013-08-01 17:59:00,82.3,74.0,29.94,WSW,249,3.0,4.0,76,0.00,,,0.01,Wunderground v.1.15,2013-08-01 21:59:00,
2013-08-01 18:03:00,81.4,73.5,29.94,East,81,3.0,8.0,77,0.00,,,0.01,Wunderground v.1.15,2013-08-01 22:03:00,
2013-08-01 18:04:00,81.4,73.9,29.94,NE,52,0.0,8.0,78,0.00,,,0.01,Wunderground v.1.15,2013-08-01 22:04:00,
2013-08-01 18:09:00,81.9,74.0,29.94,SW,232,4.0,8.0,77,0.00,,,0.01,Wunderground v.1.15,2013-08-01 22:09:00,
2013-08-01 18:10:00,81.8,73.1,29.94,WSW,252,1.0,8.0,75,0.00,,,0.01,Wunderground v.1.15,2013-08-01 22:10:00,
2013-08-01 18:14:00,81.8,73.1,29.94,WSW,256,1.0,4.0,75,0.00,,,0.01,Wunderground v.1.15,2013-08-01 22:14:00,
2013-08-01 18:16:00,81.8,73.9,29.94,WNW,294,0.0,4.0,77,0.00,,,0.01,Wunderground v.1.15,2013-08-01 22:16:00,
2013-08-01 18:20:00,82.3,73.6,29.93,WSW,257,0.0,1.0,75,0.00,,,0.01,Wunderground v.1.15,2013-08-01 22:20:00,
2013-08-01 18:22:00,82.6,74.3,29.93,WSW,249,0.0,1.0,76,0.00,,,0.01,Wunderground v.1.15,2013-08-01 22:22:00,
2013-08-01 18:25:00,82.9,74.6,29.93,WSW,248,0.0,1.0,76,0.00,,,0.01,Wunderground v.1.15,2013-08-01 22:25:00,
2013-08-01 18:28:00,83.1,73.9,29.93,SSE,153,1.0,2.0,74,0.00,,,0.01,Wunderground v.1.15,2013-08-01 22:28:00,
2013-08-01 18:30:00,83.1,73.5,29.94,West,264,0.0,0.0,73,0.00,,,0.01,Wunderground v.1.15,2013-08-01 22:30:00,
2013-08-01 18:33:00,83.2,73.6,29.94,SW,226,1.0,1.0,73,0.00,,,0.01,Wunderground v.1.15,2013-08-01 22:33:00,
2013-08-01 18:34:00,83.2,73.6,29.94,SW,229,0.0,1.0,73,0.00,,,0.01,Wunderground v.1.15,2013-08-01 22:34:00,
2013-08-01 18:35:00,83.3,73.7,29.94,SE,128,0.0,1.0,73,0.00,,,0.01,Wunderground v.1.15,2013-08-01 22:35:00,
2013-08-01 18:36:00,83.3,73.7,29.94,SE,129,0.0,1.0,73,0.00,,,0.01,Wunderground v.1.15,2013-08-01 22:36:00,
2013-08-01 18:38:00,83.6,74.4,29.94,East,87,0.0,1.0,74,0.00,,,0.01,Wunderground v.1.15,2013-08-01 22:38:00,
2013-08-01 18:39:00,83.8,74.2,29.94,East,85,0.0,1.0,73,0.00,,,0.01,Wunderground v.1.15,2013-08-01 22:39:00,
2013-08-01 18:41:00,83.8,73.8,29.94,East,84,1.0,1.0,72,0.00,,,0.01,Wunderground v.1.15,2013-08-01 22:41:00,
2013-08-01 18:42:00,83.7,73.7,29.94,East,83,0.0,1.0,72,0.00,,,0.01,Wunderground v.1.15,2013-08-01 22:42:00,
2013-08-01 18:43:00,83.7,73.7,29.94,East,84,0.0,1.0,72,0.00,,,0.01,Wunderground v.1.15,2013-08-01 22:43:00,
2013-08-01 18:45:00,83.5,73.9,29.94,SSW,207,1.0,1.0,73,0.00,,,0.01,Wunderground v.1.15,2013-08-01 22:45:00,
2013-08-01 18:46:00,83.4,73.8,29.94,SSE,166,2.0,2.0,73,0.00,,,0.01,Wunderground v.1.15,2013-08-01 22:46:00,
2013-08-01 18:47:00,83.3,73.7,29.94,SSE,160,1.0,2.0,73,0.00,,,0.01,Wunderground v.1.15,2013-08-01 22:47:00,
2013-08-01 18:48:00,83.2,74.0,29.95,South,188,1.0,2.0,74,0.00,,,0.01,Wunderground v.1.15,2013-08-01 22:48:00,
2013-08-01 18:51:00,82.8,73.7,29.95,SSW,204,1.0,1.0,74,0.00,,,0.01,Wunderground v.1.15,2013-08-01 22:51:00,
2013-08-01 18:52:00,82.7,73.6,29.94,SSW,204,0.0,1.0,74,0.00,,,0.01,Wunderground v.1.15,2013-08-01 22:52:00,
2013-08-01 18:53:00,82.6,73.1,29.94,SSW,204,0.0,1.0,73,0.00,,,0.01,Wunderground v.1.15,2013-08-01 22:53:00,
2013-08-01 18:57:00,82.5,73.4,29.94,SSW,204,0.0,1.0,74,0.00,,,0.01,Wunderground v.1.15,2013-08-01 22:57:00,
2013-08-01 18:58:00,82.5,73.8,29.94,SSW,204,0.0,1.0,75,0.00,,,0.01,Wunderground v.1.15,2013-08-01 22:58:00,
2013-08-01 18:59:00,82.5,74.6,29.94,SSW,204,0.0,1.0,77,0.00,,,0.01,Wunderground v.1.15,2013-08-01 22:59:00,
2013-08-01 19:02:00,81.7,74.2,29.94,ESE,114,1.0,2.0,78,0.00,,,0.01,Wunderground v.1.15,2013-08-01 23:02:00,
2013-08-01 19:04:00,81.1,74.3,29.94,East,90,1.0,2.0,80,0.00,,,0.01,Wunderground v.1.15,2013-08-01 23:04:00,
2013-08-01 19:08:00,80.5,74.5,29.94,East,90,0.0,2.0,82,0.00,,,0.01,Wunderground v.1.15,2013-08-01 23:08:00,
2013-08-01 19:09:00,80.3,74.3,29.94,East,91,0.0,2.0,82,0.00,,,0.01,Wunderground v.1.15,2013-08-01 23:09:00,
2013-08-01 19:13:00,80.1,73.7,29.95,East,90,0.0,1.0,81,0.00,,,0.01,Wunderground v.1.15,2013-08-01 23:13:00,
2013-08-01 19:14:00,80.1,73.7,29.95,East,91,0.0,1.0,81,0.00,,,0.01,Wunderground v.1.15,2013-08-01 23:14:00,
2013-08-01 19:18:00,80.3,73.9,29.95,East,91,0.0,1.0,81,0.00,,,0.01,Wunderground v.1.15,2013-08-01 23:18:00,
2013-08-01 19:19:00,80.5,74.5,29.94,East,91,0.0,1.0,82,0.00,,,0.01,Wunderground v.1.15,2013-08-01 23:19:00,
2013-08-01 19:20:00,80.5,74.5,29.94,East,90,0.0,1.0,82,0.00,,,0.01,Wunderground v.1.15,2013-08-01 23:20:00,
2013-08-01 19:23:00,80.9,74.1,29.94,SSW,194,1.0,3.0,80,0.00,,,0.01,Wunderground v.1.15,2013-08-01 23:23:00,
2013-08-01 19:25:00,81.0,74.2,29.94,SW,221,2.0,3.0,80,0.00,,,0.01,Wunderground v.1.15,2013-08-01 23:25:00,
2013-08-01 19:28:00,80.8,73.7,29.95,SW,218,2.0,3.0,79,0.00,,,0.01,Wunderground v.1.15,2013-08-01 23:28:00,
2013-08-01 19:30:00,80.5,73.8,29.95,SW,219,2.0,2.0,80,0.00,,,0.01,Wunderground v.1.15,2013-08-01 23:30:00,
2013-08-01 19:33:00,80.2,73.8,29.94,WSW,258,1.0,5.0,81,0.00,,,0.01,Wunderground v.1.15,2013-08-01 23:33:00,
2013-08-01 19:36:00,79.9,73.5,29.95,South,191,1.0,5.0,81,0.00,,,0.01,Wunderground v.1.15,2013-08-01 23:36:00,
2013-08-01 19:37:00,79.7,73.3,29.94,WSW,242,1.0,5.0,81,0.00,,,0.01,Wunderground v.1.15,2013-08-01 23:37:00,
2013-08-01 19:39:00,79.6,73.3,29.94,WSW,240,0.0,5.0,81,0.00,,,0.01,Wunderground v.1.15,2013-08-01 23:39:00,
2013-08-01 19:41:00,79.4,73.4,29.95,WSW,253,0.0,2.0,82,0.00,,,0.01,Wunderground v.1.15,2013-08-01 23:41:00,
2013-08-01 19:42:00,79.4,73.4,29.95,SSE,166,1.0,2.0,82,0.00,,,0.01,Wunderground v.1.15,2013-08-01 23:42:00,
2013-08-01 19:44:00,79.3,73.7,29.95,SSE,166,0.0,2.0,83,0.00,,,0.01,Wunderground v.1.15,2013-08-01 23:44:00,
2013-08-01 19:47:00,78.9,74.0,29.95,SSE,166,0.0,2.0,85,0.00,,,0.01,Wunderground v.1.15,2013-08-01 23:47:00,
2013-08-01 19:48:00,79.0,74.1,29.95,SSE,166,0.0,2.0,85,0.00,,,0.01,Wunderground v.1.15,2013-08-01 23:48:00,
2013-08-01 19:50:00,78.7,73.8,29.95,SSE,166,0.0,2.0,85,0.00,,,0.01,Wunderground v.1.15,2013-08-01 23:50:00,
2013-08-01 19:53:00,78.3,73.8,29.95,SSE,166,0.0,0.0,86,0.00,,,0.01,Wunderground v.1.15,2013-08-01 23:53:00,
2013-08-01 19:54:00,78.2,73.7,29.95,SSE,166,0.0,0.0,86,0.00,,,0.01,Wunderground v.1.15,2013-08-01 23:54:00,
2013-08-01 19:55:00,78.1,73.6,29.95,SSE,166,0.0,0.0,86,0.00,,,0.01,Wunderground v.1.15,2013-08-01 23:55:00,
2013-08-01 19:58:00,78.0,73.8,29.96,SSE,166,0.0,0.0,87,0.00,,,0.01,Wunderground v.1.15,2013-08-01 23:58:00,
2013-08-01 19:59:00,77.9,73.7,29.96,SW,229,0.0,0.0,87,0.00,,,0.01,Wunderground v.1.15,2013-08-01 23:59:00,
2013-08-01 20:00:00,77.9,73.7,29.96,WSW,239,0.0,1.0,87,0.00,,,0.01,Wunderground v.1.15,2013-08-02 00:00:00,
2013-08-01 20:03:00,77.8,73.3,29.96,NNE,33,1.0,1.0,86,0.00,,,0.01,Wunderground v.1.15,2013-08-02 00:03:00,
2013-08-01 20:04:00,77.8,73.3,29.96,NNE,30,2.0,2.0,86,0.00,,,0.01,Wunderground v.1.15,2013-08-02 00:04:00,
2013-08-01 20:06:00,77.7,73.5,29.96,NNE,30,2.0,3.0,87,0.00,,,0.01,Wunderground v.1.15,2013-08-02 00:06:00,
2013-08-01 20:07:00,77.6,73.8,29.96,NNE,30,2.0,3.0,88,0.00,,,0.01,Wunderground v.1.15,2013-08-02 00:07:00,
2013-08-01 20:08:00,77.5,73.7,29.96,NNE,30,0.0,3.0,88,0.00,,,0.01,Wunderground v.1.15,2013-08-02 00:08:00,
2013-08-01 20:09:00,77.4,73.6,29.96,NNE,30,0.0,3.0,88,0.00,,,0.01,Wunderground v.1.15,2013-08-02 00:09:00,
2013-08-01 20:13:00,77.1,73.6,29.96,NNE,30,0.0,1.0,89,0.00,,,0.01,Wunderground v.1.15,2013-08-02 00:13:00,
2013-08-01 20:14:00,77.1,73.6,29.96,NNE,30,0.0,1.0,89,0.00,,,0.01,Wunderground v.1.15,2013-08-02 00:14:00,
2013-08-01 20:15:00,77.0,73.5,29.96,NNE,30,0.0,1.0,89,0.00,,,0.01,Wunderground v.1.15,2013-08-02 00:15:00,
2013-08-01 20:19:00,77.0,73.5,29.97,NNE,30,0.0,1.0,89,0.00,,,0.01,Wunderground v.1.15,2013-08-02 00:19:00,
2013-08-01 20:21:00,76.9,73.4,29.97,NNE,30,0.0,0.0,89,0.00,,,0.01,Wunderground v.1.15,2013-08-02 00:21:00,
2013-08-01 20:23:00,76.9,73.7,29.97,NNE,30,0.0,0.0,90,0.00,,,0.01,Wunderground v.1.15,2013-08-02 00:23:00,
2013-08-01 20:25:00,76.9,73.7,29.97,NNE,30,0.0,0.0,90,0.00,,,0.01,Wunderground v.1.15,2013-08-02 00:25:00,
2013-08-01 20:27:00,76.8,73.6,29.97,NNE,30,0.0,0.0,90,0.00,,,0.01,Wunderground v.1.15,2013-08-02 00:27:00,
2013-08-01 20:29:00,76.7,73.2,29.97,NNE,30,0.0,1.0,89,0.00,,,0.01,Wunderground v.1.15,2013-08-02 00:29:00,
2013-08-01 20:30:00,76.7,73.2,29.97,NNE,30,0.0,1.0,89,0.00,,,0.01,Wunderground v.1.15,2013-08-02 00:30:00,
2013-08-01 20:32:00,76.7,73.5,29.97,NNE,30,0.0,0.0,90,0.00,,,0.01,Wunderground v.1.15,2013-08-02 00:32:00,
2013-08-01 20:35:00,76.7,73.5,29.97,NNE,30,0.0,0.0,90,0.00,,,0.01,Wunderground v.1.15,2013-08-02 00:35:00,
2013-08-01 20:36:00,76.7,73.5,29.97,NNE,30,0.0,0.0,90,0.00,,,0.01,Wunderground v.1.15,2013-08-02 00:36:00,
2013-08-01 20:37:00,76.8,73.3,29.97,SE,135,1.0,1.0,89,0.00,,,0.01,Wunderground v.1.15,2013-08-02 00:37:00,
2013-08-01 20:42:00,76.8,73.6,29.98,SE,135,1.0,1.0,90,0.00,,,0.01,Wunderground v.1.15,2013-08-02 00:42:00,
2013-08-01 20:43:00,76.8,73.6,29.98,SE,135,1.0,1.0,90,0.00,,,0.01,Wunderground v.1.15,2013-08-02 00:43:00,
2013-08-01 20:48:00,76.8,73.6,29.98,SE,135,0.0,1.0,90,0.00,,,0.01,Wunderground v.1.15,2013-08-02 00:48:00,
2013-08-01 20:53:00,76.6,73.4,29.97,SE,135,0.0,0.0,90,0.00,,,0.01,Wunderground v.1.15,2013-08-02 00:53:00,
2013-08-01 20:55:00,76.5,73.3,29.97,SE,135,0.0,0.0,90,0.00,,,0.01,Wunderground v.1.15,2013-08-02 00:55:00,
2013-08-01 20:58:00,76.4,73.6,29.97,SE,135,0.0,0.0,91,0.00,,,0.01,Wunderground v.1.15,2013-08-02 00:58:00,
2013-08-01 20:59:00,76.4,73.2,29.98,SE,135,0.0,0.0,90,0.00,,,0.01,Wunderground v.1.15,2013-08-02 00:59:00,
2013-08-01 21:00:00,76.3,73.1,29.98,SE,138,0.0,0.0,90,0.00,,,0.01,Wunderground v.1.15,2013-08-02 01:00:00,
2013-08-01 21:03:00,76.3,73.1,29.98,SE,139,0.0,0.0,90,0.00,,,0.01,Wunderground v.1.15,2013-08-02 01:03:00,
2013-08-01 21:04:00,76.3,73.1,29.98,SE,138,0.0,0.0,90,0.00,,,0.01,Wunderground v.1.15,2013-08-02 01:04:00,
2013-08-01 21:06:00,76.3,73.1,29.98,SE,129,0.0,0.0,90,0.00,,,0.01,Wunderground v.1.15,2013-08-02 01:06:00,
2013-08-01 21:10:00,76.2,73.4,29.98,ENE,69,0.0,0.0,91,0.00,,,0.01,Wunderground v.1.15,2013-08-02 01:10:00,
2013-08-01 21:11:00,76.1,73.3,29.98,ENE,64,0.0,0.0,91,0.00,,,0.01,Wunderground v.1.15,2013-08-02 01:11:00,
2013-08-01 21:15:00,75.7,73.2,29.99,ENE,62,0.0,0.0,92,0.00,,,0.01,Wunderground v.1.15,2013-08-02 01:15:00,
2013-08-01 21:16:00,75.7,73.2,29.99,ENE,61,0.0,0.0,92,0.00,,,0.01,Wunderground v.1.15,2013-08-02 01:16:00,
2013-08-01 21:18:00,75.6,73.1,29.99,ENE,60,0.0,0.0,92,0.00,,,0.01,Wunderground v.1.15,2013-08-02 01:18:00,
2013-08-01 21:20:00,75.6,73.1,29.99,ENE,60,0.0,0.0,92,0.00,,,0.01,Wunderground v.1.15,2013-08-02 01:20:00,
2013-08-01 21:21:00,75.6,73.1,29.99,ENE,61,0.0,0.0,92,0.00,,,0.01,Wunderground v.1.15,2013-08-02 01:21:00,
2013-08-01 21:22:00,75.6,73.1,29.99,East,81,0.0,0.0,92,0.00,,,0.01,Wunderground v.1.15,2013-08-02 01:22:00,
2013-08-01 21:24:00,75.6,73.1,29.98,SSE,152,0.0,0.0,92,0.00,,,0.01,Wunderground v.1.15,2013-08-02 01:24:00,
2013-08-01 21:25:00,75.6,73.1,29.98,SW,222,0.0,0.0,92,0.00,,,0.01,Wunderground v.1.15,2013-08-02 01:25:00,
2013-08-01 21:27:00,75.6,73.1,29.98,SW,222,0.0,0.0,92,0.00,,,0.01,Wunderground v.1.15,2013-08-02 01:27:00,
2013-08-01 21:28:00,75.6,73.1,29.98,SW,222,0.0,0.0,92,0.00,,,0.01,Wunderground v.1.15,2013-08-02 01:28:00,
2013-08-01 21:29:00,75.6,73.1,29.99,SW,222,0.0,0.0,92,0.00,,,0.01,Wunderground v.1.15,2013-08-02 01:29:00,
2013-08-01 21:31:00,75.6,72.8,29.99,SW,222,0.0,0.0,91,0.00,,,0.01,Wunderground v.1.15,2013-08-02 01:31:00,
2013-08-01 21:32:00,75.5,73.0,29.99,SW,221,2.0,2.0,92,0.00,,,0.01,Wunderground v.1.15,2013-08-02 01:32:00,
2013-08-01 21:33:00,75.5,73.0,29.99,SW,222,2.0,2.0,92,0.00,,,0.01,Wunderground v.1.15,2013-08-02 01:33:00,
2013-08-01 21:35:00,75.3,72.8,29.98,NE,39,1.0,2.0,92,0.00,,,0.01,Wunderground v.1.15,2013-08-02 01:35:00,
2013-08-01 21:36:00,75.3,72.8,29.98,NE,38,1.0,2.0,92,0.00,,,0.01,Wunderground v.1.15,2013-08-02 01:36:00,
2013-08-01 21:37:00,75.1,72.9,29.98,NE,39,1.0,2.0,93,0.00,,,0.01,Wunderground v.1.15,2013-08-02 01:37:00,
2013-08-01 21:39:00,74.9,72.7,29.98,NE,38,0.0,2.0,93,0.00,,,0.01,Wunderground v.1.15,2013-08-02 01:39:00,
2013-08-01 21:40:00,74.8,72.6,29.98,NE,38,0.0,1.0,93,0.00,,,0.01,Wunderground v.1.15,2013-08-02 01:40:00,
2013-08-01 21:41:00,74.8,72.6,29.98,NE,38,0.0,1.0,93,0.00,,,0.01,Wunderground v.1.15,2013-08-02 01:41:00,
2013-08-01 21:43:00,74.7,72.5,29.98,NE,38,0.0,1.0,93,0.00,,,0.01,Wunderground v.1.15,2013-08-02 01:43:00,
2013-08-01 21:44:00,74.7,72.5,29.98,NE,38,0.0,1.0,93,0.00,,,0.01,Wunderground v.1.15,2013-08-02 01:44:00,
2013-08-01 21:45:00,74.6,72.4,29.98,NE,38,0.0,1.0,93,0.00,,,0.01,Wunderground v.1.15,2013-08-02 01:45:00,
2013-08-01 21:46:00,74.6,72.4,29.98,NE,39,0.0,1.0,93,0.00,,,0.01,Wunderground v.1.15,2013-08-02 01:46:00,
2013-08-01 21:48:00,74.5,72.7,29.98,NE,38,0.0,1.0,94,0.00,,,0.01,Wunderground v.1.15,2013-08-02 01:48:00,
2013-08-01 21:50:00,74.4,72.6,29.98,NE,38,0.0,0.0,94,0.00,,,0.01,Wunderground v.1.15,2013-08-02 01:50:00,
2013-08-01 21:51:00,74.4,72.6,29.98,NE,39,1.0,1.0,94,0.00,,,0.01,Wunderground v.1.15,2013-08-02 01:51:00,
2013-08-01 21:52:00,74.4,72.6,29.98,NE,38,0.0,1.0,94,0.00,,,0.01,Wunderground v.1.15,2013-08-02 01:52:00,
2013-08-01 21:55:00,74.4,72.6,29.98,SW,215,2.0,2.0,94,0.00,,,0.01,Wunderground v.1.15,2013-08-02 01:55:00,
2013-08-01 21:56:00,74.4,72.6,29.98,SW,215,1.0,2.0,94,0.00,,,0.01,Wunderground v.1.15,2013-08-02 01:56:00,
2013-08-01 21:57:00,74.4,72.6,29.98,SW,217,1.0,2.0,94,0.00,,,0.01,Wunderground v.1.15,2013-08-02 01:57:00,
2013-08-01 22:00:00,74.4,72.6,29.99,SSW,210,0.0,1.0,94,0.00,,,0.01,Wunderground v.1.15,2013-08-02 02:00:00,
2013-08-01 22:02:00,74.4,72.6,29.99,SSW,210,0.0,1.0,94,0.00,,,0.01,Wunderground v.1.15,2013-08-02 02:02:00,
2013-08-01 22:03:00,74.4,72.6,29.99,SSW,210,0.0,1.0,94,0.00,,,0.01,Wunderground v.1.15,2013-08-02 02:03:00,
2013-08-01 22:05:00,74.4,72.2,29.98,SSW,210,0.0,1.0,93,0.00,,,0.01,Wunderground v.1.15,2013-08-02 02:05:00,
2013-08-01 22:07:00,74.4,72.2,29.98,SSW,210,0.0,1.0,93,0.00,,,0.01,Wunderground v.1.15,2013-08-02 02:07:00,
2013-08-01 22:09:00,74.4,72.2,29.98,SSW,210,0.0,1.0,93,0.00,,,0.01,Wunderground v.1.15,2013-08-02 02:09:00,
2013-08-01 22:11:00,74.4,72.6,29.98,SSW,210,0.0,0.0,94,0.00,,,0.01,Wunderground v.1.15,2013-08-02 02:11:00,
2013-08-01 22:12:00,74.4,72.6,29.98,SSW,210,0.0,0.0,94,0.00,,,0.01,Wunderground v.1.15,2013-08-02 02:12:00,
2013-08-01 22:14:00,74.3,72.5,29.98,SSW,210,0.0,0.0,94,0.00,,,0.01,Wunderground v.1.15,2013-08-02 02:14:00,
2013-08-01 22:17:00,74.2,72.0,29.98,SSW,207,0.0,0.0,93,0.00,,,0.01,Wunderground v.1.15,2013-08-02 02:17:00,
2013-08-01 22:18:00,74.2,72.0,29.98,SSW,207,0.0,0.0,93,0.00,,,0.01,Wunderground v.1.15,2013-08-02 02:18:00,
2013-08-01 22:20:00,74.1,71.9,29.98,SSW,208,0.0,0.0,93,0.00,,,0.01,Wunderground v.1.15,2013-08-02 02:20:00,
2013-08-01 22:22:00,74.1,71.9,29.98,SSW,208,0.0,0.0,93,0.00,,,0.01,Wunderground v.1.15,2013-08-02 02:22:00,
2013-08-01 22:24:00,74.1,71.9,29.98,SSW,207,0.0,0.0,93,0.00,,,0.01,Wunderground v.1.15,2013-08-02 02:24:00,
2013-08-01 22:25:00,74.1,71.9,29.98,SSW,208,0.0,0.0,93,0.00,,,0.01,Wunderground v.1.15,2013-08-02 02:25:00,
2013-08-01 22:27:00,74.1,71.6,29.98,SSW,194,1.0,1.0,92,0.00,,,0.01,Wunderground v.1.15,2013-08-02 02:27:00,
2013-08-01 22:29:00,74.1,71.6,29.98,SSW,194,1.0,1.0,92,0.00,,,0.01,Wunderground v.1.15,2013-08-02 02:29:00,
2013-08-01 22:30:00,74.1,71.6,29.98,SSW,195,1.0,2.0,92,0.00,,,0.01,Wunderground v.1.15,2013-08-02 02:30:00,
2013-08-01 22:33:00,74.1,71.6,29.98,SW,215,0.0,2.0,92,0.00,,,0.01,Wunderground v.1.15,2013-08-02 02:33:00,
2013-08-01 22:34:00,74.1,71.6,29.98,SW,215,1.0,2.0,92,0.00,,,0.01,Wunderground v.1.15,2013-08-02 02:34:00,
2013-08-01 22:37:00,74.1,71.6,29.98,SW,215,0.0,2.0,92,0.00,,,0.01,Wunderground v.1.15,2013-08-02 02:37:00,
2013-08-01 22:39:00,74.1,71.6,29.98,SW,215,0.0,2.0,92,0.00,,,0.01,Wunderground v.1.15,2013-08-02 02:39:00,
2013-08-01 22:41:00,74.1,71.6,29.98,SW,218,0.0,1.0,92,0.00,,,0.01,Wunderground v.1.15,2013-08-02 02:41:00,
2013-08-01 22:43:00,74.0,71.5,29.98,SW,218,0.0,1.0,92,0.00,,,0.01,Wunderground v.1.15,2013-08-02 02:43:00,
2013-08-01 22:44:00,74.0,71.5,29.98,SW,218,0.0,1.0,92,0.00,,,0.01,Wunderground v.1.15,2013-08-02 02:44:00,
2013-08-01 22:47:00,73.9,71.7,29.98,SW,218,0.0,1.0,93,0.00,,,0.01,Wunderground v.1.15,2013-08-02 02:47:00,
2013-08-01 22:49:00,73.7,71.5,29.98,SW,218,0.0,1.0,93,0.00,,,0.01,Wunderground v.1.15,2013-08-02 02:49:00,
2013-08-01 22:50:00,73.6,71.4,29.98,SW,218,0.0,0.0,93,0.00,,,0.01,Wunderground v.1.15,2013-08-02 02:50:00,
2013-08-01 22:53:00,73.3,71.5,29.98,SW,218,0.0,0.0,94,0.00,,,0.01,Wunderground v.1.15,2013-08-02 02:53:00,
2013-08-01 22:55:00,73.1,71.3,29.98,SW,218,0.0,0.0,94,0.00,,,0.01,Wunderground v.1.15,2013-08-02 02:55:00,
2013-08-01 22:58:00,72.9,71.1,29.98,SW,218,0.0,0.0,94,0.00,,,0.01,Wunderground v.1.15,2013-08-02 02:58:00,
2013-08-01 23:00:00,72.9,71.1,29.98,SW,218,0.0,0.0,94,0.00,,,0.01,Wunderground v.1.15,2013-08-02 03:00:00,
2013-08-01 23:01:00,72.8,71.0,29.98,SW,217,0.0,0.0,94,0.00,,,0.01,Wunderground v.1.15,2013-08-02 03:01:00,
2013-08-01 23:03:00,72.7,70.9,29.98,SW,218,0.0,0.0,94,0.00,,,0.01,Wunderground v.1.15,2013-08-02 03:03:00,
2013-08-01 23:05:00,72.6,71.1,29.99,SW,217,0.0,0.0,95,0.00,,,0.01,Wunderground v.1.15,2013-08-02 03:05:00,
2013-08-01 23:07:00,72.6,71.1,29.99,SW,218,0.0,0.0,95,0.00,,,0.01,Wunderground v.1.15,2013-08-02 03:07:00,
2013-08-01 23:08:00,72.5,71.0,29.99,SW,218,0.0,0.0,95,0.00,,,0.01,Wunderground v.1.15,2013-08-02 03:08:00,
2013-08-01 23:11:00,72.5,71.0,29.98,SW,218,0.0,0.0,95,0.00,,,0.01,Wunderground v.1.15,2013-08-02 03:11:00,
2013-08-01 23:12:00,72.4,70.9,29.99,SW,218,0.0,0.0,95,0.00,,,0.01,Wunderground v.1.15,2013-08-02 03:12:00,
2013-08-01 23:13:00,72.4,70.9,29.99,SW,218,0.0,0.0,95,0.00,,,0.01,Wunderground v.1.15,2013-08-02 03:13:00,
2013-08-01 23:16:00,72.3,70.8,29.99,SW,218,0.0,0.0,95,0.00,,,0.01,Wunderground v.1.15,2013-08-02 03:16:00,
2013-08-01 23:17:00,72.3,70.8,29.99,SW,218,0.0,0.0,95,0.00,,,0.01,Wunderground v.1.15,2013-08-02 03:17:00,
2013-08-01 23:19:00,72.3,71.1,29.99,SW,218,0.0,0.0,96,0.00,,,0.01,Wunderground v.1.15,2013-08-02 03:19:00,
2013-08-01 23:21:00,72.3,71.1,29.99,SW,218,0.0,0.0,96,0.00,,,0.01,Wunderground v.1.15,2013-08-02 03:21:00,
2013-08-01 23:22:00,72.4,71.2,29.99,SW,218,0.0,0.0,96,0.00,,,0.01,Wunderground v.1.15,2013-08-02 03:22:00,
2013-08-01 23:24:00,72.4,71.2,29.99,SW,218,0.0,0.0,96,0.00,,,0.01,Wunderground v.1.15,2013-08-02 03:24:00,
2013-08-01 23:28:00,72.4,71.2,29.99,SW,218,0.0,0.0,96,0.00,,,0.01,Wunderground v.1.15,2013-08-02 03:28:00,
2013-08-01 23:29:00,72.4,71.2,29.99,SW,218,0.0,0.0,96,0.00,,,0.01,Wunderground v.1.15,2013-08-02 03:29:00,
2013-08-01 23:30:00,72.4,71.2,29.99,SW,218,0.0,0.0,96,0.00,,,0.01,Wunderground v.1.15,2013-08-02 03:30:00,
2013-08-01 23:33:00,72.4,71.2,29.99,SW,217,0.0,0.0,96,0.00,,,0.01,Wunderground v.1.15,2013-08-02 03:33:00,
2013-08-01 23:34:00,72.4,71.2,29.99,SW,218,0.0,0.0,96,0.00,,,0.01,Wunderground v.1.15,2013-08-02 03:34:00,
2013-08-01 23:35:00,72.4,71.2,29.99,SW,218,0.0,0.0,96,0.00,,,0.01,Wunderground v.1.15,2013-08-02 03:35:00,
2013-08-01 23:39:00,72.5,71.3,29.99,SW,218,0.0,0.0,96,0.00,,,0.01,Wunderground v.1.15,2013-08-02 03:39:00,
2013-08-01 23:40:00,72.4,71.2,29.99,SW,217,0.0,0.0,96,0.00,,,0.01,Wunderground v.1.15,2013-08-02 03:40:00,
2013-08-01 23:44:00,72.5,71.3,30.00,SW,218,0.0,0.0,96,0.00,,,0.01,Wunderground v.1.15,2013-08-02 03:44:00,
2013-08-01 23:46:00,72.5,71.3,29.99,SW,218,0.0,0.0,96,0.00,,,0.01,Wunderground v.1.15,2013-08-02 03:46:00,
2013-08-01 23:50:00,72.6,71.4,29.99,SW,218,0.0,0.0,96,0.00,,,0.01,Wunderground v.1.15,2013-08-02 03:50:00,
2013-08-01 23:51:00,72.6,71.4,29.99,SW,218,0.0,0.0,96,0.00,,,0.01,Wunderground v.1.15,2013-08-02 03:51:00,
2013-08-01 23:55:00,72.6,71.4,30.00,SW,218,0.0,0.0,96,0.00,,,0.01,Wunderground v.1.15,2013-08-02 03:55:00,
2013-08-01 23:56:00,72.6,71.4,30.00,NNW,327,1.0,1.0,96,0.00,,,0.01,Wunderground v.1.15,2013-08-02 03:56:00,